Time,TemperatureF,DewpointF,PressureIn,WindDirection,WindDirectionDegrees,WindSpeedMPH,WindSpeedGustMPH,Humidity,HourlyPrecipIn,Conditions,Clouds,dailyrainin,SolarRadiationWatts/m^2,SoftwareType,DateUTC
2013-11-25 00:01:00,15.8,3.7,29.60,NE,40,0.0,0.0,58,0.00,,,0.00,0,WeatherCatV1.23B16,2013-11-25 05:01:00,
2013-11-25 00:02:00,15.8,4.1,29.61,NE,40,0.0,0.0,59,0.00,,,0.00,0,WeatherCatV1.23B16,2013-11-25 05:02:00,
2013-11-25 00:06:00,15.8,4.4,29.61,NE,40,0.0,0.0,60,0.00,,,0.00,0,WeatherCatV1.23B16,2013-11-25 05:06:00,
2013-11-25 00:08:00,15.8,4.1,29.61,NE,40,0.0,0.0,59,0.00,,,0.00,0,WeatherCatV1.23B16,2013-11-25 05:08:00,
2013-11-25 00:11:00,15.8,3.3,29.62,NE,42,0.0,1.0,57,0.00,,,0.00,0,WeatherCatV1.23B16,2013-11-25 05:11:00,
2013-11-25 00:12:00,15.8,3.3,29.62,ESE,111,0.0,1.0,57,0.00,,,0.00,0,WeatherCatV1.23B16,2013-11-25 05:12:00,
2013-11-25 00:14:00,15.8,4.1,29.61,East,86,0.0,3.0,59,0.00,,,0.00,0,WeatherCatV1.23B16,2013-11-25 05:14:00,
2013-11-25 00:16:00,15.8,3.7,29.62,ENE,68,0.0,0.0,58,0.00,,,0.00,0,WeatherCatV1.23B16,2013-11-25 05:16:00,
2013-11-25 00:17:00,15.8,3.7,29.62,ENE,68,0.0,0.0,58,0.00,,,0.00,0,WeatherCatV1.23B16,2013-11-25 05:17:00,
2013-11-25 00:19:00,15.7,3.6,29.62,ESE,121,0.0,0.0,58,0.00,,,0.00,0,WeatherCatV1.23B16,2013-11-25 05:19:00,
2013-11-25 00:21:00,15.7,2.8,29.62,ESE,121,0.0,0.0,56,0.00,,,0.00,0,WeatherCatV1.23B16,2013-11-25 05:21:00,
2013-11-25 00:22:00,15.7,2.8,29.62,ESE,117,0.0,0.0,56,0.00,,,0.00,0,WeatherCatV1.23B16,2013-11-25 05:22:00,
2013-11-25 00:23:00,15.7,4.0,29.62,ESE,117,0.0,0.0,59,0.00,,,0.00,0,WeatherCatV1.23B16,2013-11-25 05:23:00,
2013-11-25 00:24:00,15.7,4.0,29.62,ESE,117,0.0,0.0,59,0.00,,,0.00,0,WeatherCatV1.23B16,2013-11-25 05:24:00,
2013-11-25 00:26:00,15.6,3.9,29.62,ESE,117,0.0,0.0,59,0.00,,,0.00,0,WeatherCatV1.23B16,2013-11-25 05:26:00,
2013-11-25 00:27:00,15.6,4.2,29.62,ESE,117,0.0,0.0,60,0.00,,,0.00,0,WeatherCatV1.23B16,2013-11-25 05:27:00,
2013-11-25 00:29:00,15.6,3.9,29.62,ESE,117,0.0,0.0,59,0.00,,,0.00,0,WeatherCatV1.23B16,2013-11-25 05:29:00,
2013-11-25 00:30:00,15.6,3.5,29.62,ESE,117,0.0,0.0,58,0.00,,,0.00,0,WeatherCatV1.23B16,2013-11-25 05:30:00,
2013-11-25 00:31:00,15.6,3.5,29.62,ESE,120,0.0,0.0,58,0.00,,,0.00,0,WeatherCatV1.23B16,2013-11-25 05:31:00,
2013-11-25 00:32:00,15.5,3.4,29.62,SE,131,0.0,0.0,58,0.00,,,0.00,0,WeatherCatV1.23B16,2013-11-25 05:32:00,
2013-11-25 00:33:00,15.5,3.4,29.62,SSE,155,1.0,1.0,58,0.00,,,0.00,0,WeatherCatV1.23B16,2013-11-25 05:33:00,
2013-11-25 00:34:00,15.5,3.4,29.62,SSE,148,0.0,1.0,58,0.00,,,0.00,0,WeatherCatV1.23B16,2013-11-25 05:34:00,
2013-11-25 00:35:00,15.5,4.1,29.62,WSW,245,0.0,1.0,60,0.00,,,0.00,0,WeatherCatV1.23B16,2013-11-25 05:35:00,
2013-11-25 00:36:00,15.4,4.0,29.62,WSW,245,0.0,0.0,60,0.00,,,0.00,0,WeatherCatV1.23B16,2013-11-25 05:36:00,
2013-11-25 00:37:00,15.4,3.7,29.63,WSW,245,0.0,0.0,59,0.00,,,0.00,0,WeatherCatV1.23B16,2013-11-25 05:37:00,
2013-11-25 00:38:00,15.4,3.3,29.63,WSW,245,0.0,0.0,58,0.00,,,0.00,0,WeatherCatV1.23B16,2013-11-25 05:38:00,
2013-11-25 00:39:00,15.3,3.6,29.63,WSW,245,0.0,0.0,59,0.00,,,0.00,0,WeatherCatV1.23B16,2013-11-25 05:39:00,
2013-11-25 00:40:00,15.3,3.6,29.63,WSW,245,0.0,0.0,59,0.00,,,0.00,0,WeatherCatV1.23B16,2013-11-25 05:40:00,
2013-11-25 00:41:00,15.3,3.6,29.63,WSW,245,0.0,0.0,59,0.00,,,0.00,0,WeatherCatV1.23B16,2013-11-25 05:41:00,
2013-11-25 00:42:00,15.3,3.6,29.63,WSW,245,0.0,0.0,59,0.00,,,0.00,0,WeatherCatV1.23B16,2013-11-25 05:42:00,
2013-11-25 00:43:00,15.2,3.5,29.63,WSW,245,0.0,0.0,59,0.00,,,0.00,0,WeatherCatV1.23B16,2013-11-25 05:43:00,
2013-11-25 00:44:00,15.2,3.5,29.63,WSW,245,0.0,0.0,59,0.00,,,0.00,0,WeatherCatV1.23B16,2013-11-25 05:44:00,
2013-11-25 00:45:00,15.2,3.8,29.63,WSW,245,0.0,0.0,60,0.00,,,0.00,0,WeatherCatV1.23B16,2013-11-25 05:45:00,
2013-11-25 00:46:00,15.2,3.5,29.63,WSW,245,0.0,0.0,59,0.00,,,0.00,0,WeatherCatV1.23B16,2013-11-25 05:46:00,
2013-11-25 00:47:00,15.1,3.4,29.63,WSW,245,0.0,0.0,59,0.00,,,0.00,0,WeatherCatV1.23B16,2013-11-25 05:47:00,
2013-11-25 00:48:00,15.1,3.4,29.63,WSW,245,0.0,0.0,59,0.00,,,0.00,0,WeatherCatV1.23B16,2013-11-25 05:48:00,
2013-11-25 00:50:00,15.0,3.7,29.63,WSW,245,0.0,0.0,60,0.00,,,0.00,0,WeatherCatV1.23B16,2013-11-25 05:50:00,
2013-11-25 00:51:00,15.0,3.7,29.63,WSW,245,0.0,0.0,60,0.00,,,0.00,0,WeatherCatV1.23B16,2013-11-25 05:51:00,
2013-11-25 00:52:00,15.0,3.3,29.64,WSW,245,0.0,0.0,59,0.00,,,0.00,0,WeatherCatV1.23B16,2013-11-25 05:52:00,
2013-11-25 00:53:00,15.0,3.3,29.64,WSW,245,0.0,0.0,59,0.00,,,0.00,0,WeatherCatV1.23B16,2013-11-25 05:53:00,
2013-11-25 00:56:00,14.9,2.8,29.63,WSW,245,0.0,0.0,58,0.00,,,0.00,0,WeatherCatV1.23B16,2013-11-25 05:56:00,
2013-11-25 00:57:00,14.9,2.8,29.63,WSW,245,0.0,0.0,58,0.00,,,0.00,0,WeatherCatV1.23B16,2013-11-25 05:57:00,
2013-11-25 00:58:00,14.8,3.1,29.63,WSW,245,0.0,0.0,59,0.00,,,0.00,0,WeatherCatV1.23B16,2013-11-25 05:58:00,
2013-11-25 01:02:00,14.8,2.7,29.63,WSW,245,0.0,0.0,58,0.00,,,0.00,0,WeatherCatV1.23B16,2013-11-25 06:02:00,
2013-11-25 01:03:00,14.7,2.6,29.63,WSW,245,0.0,0.0,58,0.00,,,0.00,0,WeatherCatV1.23B16,2013-11-25 06:03:00,
2013-11-25 01:04:00,14.6,2.2,29.63,WSW,245,0.0,0.0,57,0.00,,,0.00,0,WeatherCatV1.23B16,2013-11-25 06:04:00,
2013-11-25 01:07:00,14.6,2.9,29.63,NNE,22,4.0,4.0,59,0.00,,,0.00,0,WeatherCatV1.23B16,2013-11-25 06:07:00,
2013-11-25 01:08:00,14.5,2.5,29.63,North,10,1.0,4.0,58,0.00,,,0.00,0,WeatherCatV1.23B16,2013-11-25 06:08:00,
2013-11-25 01:09:00,14.5,2.5,29.63,North,11,0.0,4.0,58,0.00,,,0.00,0,WeatherCatV1.23B16,2013-11-25 06:09:00,
2013-11-25 01:12:00,14.5,2.1,29.63,ENE,71,0.0,0.0,57,0.00,,,0.00,0,WeatherCatV1.23B16,2013-11-25 06:12:00,
2013-11-25 01:13:00,14.5,2.5,29.64,ENE,71,0.0,0.0,58,0.00,,,0.00,0,WeatherCatV1.23B16,2013-11-25 06:13:00,
2013-11-25 01:14:00,14.5,2.5,29.64,ENE,68,0.0,0.0,58,0.00,,,0.00,0,WeatherCatV1.23B16,2013-11-25 06:14:00,
2013-11-25 01:15:00,14.5,2.5,29.64,ENE,68,0.0,0.0,58,0.00,,,0.00,0,WeatherCatV1.23B16,2013-11-25 06:15:00,
2013-11-25 01:17:00,14.5,2.8,29.64,NE,53,0.0,1.0,59,0.00,,,0.00,0,WeatherCatV1.23B16,2013-11-25 06:17:00,
2013-11-25 01:18:00,14.4,2.7,29.64,NE,53,0.0,0.0,59,0.00,,,0.00,0,WeatherCatV1.23B16,2013-11-25 06:18:00,
2013-11-25 01:19:00,14.4,2.7,29.64,NE,53,0.0,0.0,59,0.00,,,0.00,0,WeatherCatV1.23B16,2013-11-25 06:19:00,
2013-11-25 01:20:00,14.4,3.1,29.64,North,9,0.0,1.0,60,0.00,,,0.00,0,WeatherCatV1.23B16,2013-11-25 06:20:00,
2013-11-25 01:21:00,14.4,3.1,29.64,North,9,0.0,1.0,60,0.00,,,0.00,0,WeatherCatV1.23B16,2013-11-25 06:21:00,
2013-11-25 01:22:00,14.4,3.1,29.64,North,351,0.0,3.0,60,0.00,,,0.00,0,WeatherCatV1.23B16,2013-11-25 06:22:00,
2013-11-25 01:24:00,14.4,2.7,29.64,North,351,0.0,0.0,59,0.00,,,0.00,0,WeatherCatV1.23B16,2013-11-25 06:24:00,
2013-11-25 01:25:00,14.4,2.7,29.64,North,355,0.0,1.0,59,0.00,,,0.00,0,WeatherCatV1.23B16,2013-11-25 06:25:00,
2013-11-25 01:26:00,14.4,3.1,29.64,North,5,4.0,4.0,60,0.00,,,0.00,0,WeatherCatV1.23B16,2013-11-25 06:26:00,
2013-11-25 01:27:00,14.4,4.1,29.64,North,0,2.0,4.0,63,0.00,,,0.00,0,WeatherCatV1.23B16,2013-11-25 06:27:00,
2013-11-25 01:29:00,14.5,4.2,29.64,NNE,19,3.0,4.0,63,0.00,,,0.00,0,WeatherCatV1.23B16,2013-11-25 06:29:00,
2013-11-25 01:30:00,14.4,4.1,29.64,North,355,1.0,4.0,63,0.00,,,0.00,0,WeatherCatV1.23B16,2013-11-25 06:30:00,
2013-11-25 01:31:00,14.5,4.6,29.64,North,355,0.0,0.0,64,0.00,,,0.00,0,WeatherCatV1.23B16,2013-11-25 06:31:00,
2013-11-25 01:32:00,14.5,4.6,29.64,North,355,0.0,0.0,64,0.00,,,0.00,0,WeatherCatV1.23B16,2013-11-25 06:32:00,
2013-11-25 01:34:00,14.5,4.2,29.64,North,355,0.0,0.0,63,0.00,,,0.00,0,WeatherCatV1.23B16,2013-11-25 06:34:00,
2013-11-25 01:35:00,14.5,4.2,29.64,North,355,0.0,0.0,63,0.00,,,0.00,0,WeatherCatV1.23B16,2013-11-25 06:35:00,
2013-11-25 01:36:00,14.5,4.2,29.64,North,355,0.0,0.0,63,0.00,,,0.00,0,WeatherCatV1.23B16,2013-11-25 06:36:00,
2013-11-25 01:37:00,14.5,3.9,29.64,North,355,0.0,0.0,62,0.00,,,0.00,0,WeatherCatV1.23B16,2013-11-25 06:37:00,
2013-11-25 01:39:00,14.5,3.5,29.65,North,355,0.0,1.0,61,0.00,,,0.00,0,WeatherCatV1.23B16,2013-11-25 06:39:00,
2013-11-25 01:40:00,14.5,3.5,29.65,North,350,0.0,1.0,61,0.00,,,0.00,0,WeatherCatV1.23B16,2013-11-25 06:40:00,
2013-11-25 01:41:00,14.5,3.5,29.65,North,0,0.0,2.0,61,0.00,,,0.00,0,WeatherCatV1.23B16,2013-11-25 06:41:00,
2013-11-25 01:42:00,14.5,3.5,29.65,North,0,1.0,2.0,61,0.00,,,0.00,0,WeatherCatV1.23B16,2013-11-25 06:42:00,
2013-11-25 01:43:00,14.5,3.9,29.65,North,0,0.0,2.0,62,0.00,,,0.00,0,WeatherCatV1.23B16,2013-11-25 06:43:00,
2013-11-25 01:44:00,14.5,3.5,29.65,North,355,0.0,2.0,61,0.00,,,0.00,0,WeatherCatV1.23B16,2013-11-25 06:44:00,
2013-11-25 01:45:00,14.5,3.5,29.65,North,355,0.0,1.0,61,0.00,,,0.00,0,WeatherCatV1.23B16,2013-11-25 06:45:00,
2013-11-25 01:46:00,14.5,3.5,29.65,North,9,0.0,4.0,61,0.00,,,0.00,0,WeatherCatV1.23B16,2013-11-25 06:46:00,
2013-11-25 01:47:00,14.5,3.5,29.65,North,10,0.0,2.0,61,0.00,,,0.00,0,WeatherCatV1.23B16,2013-11-25 06:47:00,
2013-11-25 01:49:00,14.5,3.2,29.65,North,10,0.0,0.0,60,0.00,,,0.00,0,WeatherCatV1.23B16,2013-11-25 06:49:00,
2013-11-25 01:50:00,14.5,3.2,29.65,North,10,0.0,0.0,60,0.00,,,0.00,0,WeatherCatV1.23B16,2013-11-25 06:50:00,
2013-11-25 01:51:00,14.5,2.8,29.65,North,10,0.0,0.0,59,0.00,,,0.00,0,WeatherCatV1.23B16,2013-11-25 06:51:00,
2013-11-25 01:53:00,14.5,2.5,29.65,North,10,0.0,0.0,58,0.00,,,0.00,0,WeatherCatV1.23B16,2013-11-25 06:53:00,
2013-11-25 01:54:00,14.5,3.2,29.65,North,10,0.0,0.0,60,0.00,,,0.00,0,WeatherCatV1.23B16,2013-11-25 06:54:00,
2013-11-25 01:55:00,14.4,3.1,29.65,North,10,0.0,0.0,60,0.00,,,0.00,0,WeatherCatV1.23B16,2013-11-25 06:55:00,
2013-11-25 01:56:00,14.5,3.2,29.65,North,10,0.0,0.0,60,0.00,,,0.00,0,WeatherCatV1.23B16,2013-11-25 06:56:00,
2013-11-25 01:57:00,14.4,3.4,29.65,North,10,0.0,0.0,61,0.00,,,0.00,0,WeatherCatV1.23B16,2013-11-25 06:57:00,
2013-11-25 01:58:00,14.4,3.4,29.65,North,10,0.0,0.0,61,0.00,,,0.00,0,WeatherCatV1.23B16,2013-11-25 06:58:00,
2013-11-25 01:59:00,14.4,3.4,29.65,North,10,0.0,0.0,61,0.00,,,0.00,0,WeatherCatV1.23B16,2013-11-25 06:59:00,
2013-11-25 02:00:00,14.4,3.1,29.65,North,10,0.0,0.0,60,0.00,,,0.00,0,WeatherCatV1.23B16,2013-11-25 07:00:00,
2013-11-25 02:01:00,14.4,3.1,29.65,North,10,0.0,0.0,60,0.00,,,0.00,0,WeatherCatV1.23B16,2013-11-25 07:01:00,
2013-11-25 02:03:00,14.3,2.6,29.65,North,10,0.0,0.0,59,0.00,,,0.00,0,WeatherCatV1.23B16,2013-11-25 07:03:00,
2013-11-25 02:05:00,14.3,2.6,29.65,North,10,1.0,1.0,59,0.00,,,0.00,0,WeatherCatV1.23B16,2013-11-25 07:05:00,
2013-11-25 02:07:00,14.2,2.5,29.65,ENE,67,0.0,1.0,59,0.00,,,0.00,0,WeatherCatV1.23B16,2013-11-25 07:07:00,
2013-11-25 02:08:00,14.1,2.1,29.65,NE,44,0.0,1.0,58,0.00,,,0.00,0,WeatherCatV1.23B16,2013-11-25 07:08:00,
2013-11-25 02:09:00,14.1,2.1,29.65,NNW,342,0.0,1.0,58,0.00,,,0.00,0,WeatherCatV1.23B16,2013-11-25 07:09:00,
2013-11-25 02:10:00,14.1,2.8,29.65,NNW,339,0.0,1.0,60,0.00,,,0.00,0,WeatherCatV1.23B16,2013-11-25 07:10:00,
2013-11-25 02:11:00,14.1,3.2,29.65,NNW,340,0.0,0.0,61,0.00,,,0.00,0,WeatherCatV1.23B16,2013-11-25 07:11:00,
2013-11-25 02:12:00,14.1,3.2,29.65,NNW,340,0.0,0.0,61,0.00,,,0.00,0,WeatherCatV1.23B16,2013-11-25 07:12:00,
2013-11-25 02:13:00,14.0,2.7,29.66,NNW,340,0.0,0.0,60,0.00,,,0.00,0,WeatherCatV1.23B16,2013-11-25 07:13:00,
2013-11-25 02:14:00,14.1,2.8,29.66,NNW,340,0.0,0.0,60,0.00,,,0.00,0,WeatherCatV1.23B16,2013-11-25 07:14:00,
2013-11-25 02:15:00,14.0,2.7,29.65,NNW,340,0.0,0.0,60,0.00,,,0.00,0,WeatherCatV1.23B16,2013-11-25 07:15:00,
2013-11-25 02:16:00,14.0,2.7,29.65,NNW,340,0.0,0.0,60,0.00,,,0.00,0,WeatherCatV1.23B16,2013-11-25 07:16:00,
2013-11-25 02:18:00,14.0,2.7,29.65,North,350,0.0,1.0,60,0.00,,,0.00,0,WeatherCatV1.23B16,2013-11-25 07:18:00,
2013-11-25 02:19:00,14.0,2.7,29.65,North,355,1.0,2.0,60,0.00,,,0.00,0,WeatherCatV1.23B16,2013-11-25 07:19:00,
2013-11-25 02:21:00,14.0,3.1,29.64,North,355,0.0,2.0,61,0.00,,,0.00,0,WeatherCatV1.23B16,2013-11-25 07:21:00,
2013-11-25 02:23:00,14.0,2.3,29.64,North,355,0.0,0.0,59,0.00,,,0.00,0,WeatherCatV1.23B16,2013-11-25 07:23:00,
2013-11-25 02:24:00,14.0,2.3,29.64,North,355,0.0,0.0,59,0.00,,,0.00,0,WeatherCatV1.23B16,2013-11-25 07:24:00,
2013-11-25 02:26:00,14.0,3.1,29.65,North,355,0.0,0.0,61,0.00,,,0.00,0,WeatherCatV1.23B16,2013-11-25 07:26:00,
2013-11-25 02:29:00,14.0,3.1,29.64,North,355,0.0,0.0,61,0.00,,,0.00,0,WeatherCatV1.23B16,2013-11-25 07:29:00,
2013-11-25 02:30:00,14.0,3.4,29.64,North,355,0.0,0.0,62,0.00,,,0.00,0,WeatherCatV1.23B16,2013-11-25 07:30:00,
2013-11-25 02:31:00,14.0,3.4,29.65,North,355,0.0,0.0,62,0.00,,,0.00,0,WeatherCatV1.23B16,2013-11-25 07:31:00,
2013-11-25 02:32:00,13.9,3.3,29.65,North,355,0.0,0.0,62,0.00,,,0.00,0,WeatherCatV1.23B16,2013-11-25 07:32:00,
2013-11-25 02:34:00,14.0,3.4,29.64,North,355,0.0,0.0,62,0.00,,,0.00,0,WeatherCatV1.23B16,2013-11-25 07:34:00,
2013-11-25 02:35:00,13.9,3.3,29.64,North,355,0.0,0.0,62,0.00,,,0.00,0,WeatherCatV1.23B16,2013-11-25 07:35:00,
2013-11-25 02:36:00,13.9,3.7,29.64,North,355,0.0,0.0,63,0.00,,,0.00,0,WeatherCatV1.23B16,2013-11-25 07:36:00,
2013-11-25 02:37:00,13.9,3.7,29.65,North,355,0.0,0.0,63,0.00,,,0.00,0,WeatherCatV1.23B16,2013-11-25 07:37:00,
2013-11-25 02:39:00,13.9,3.7,29.65,WSW,238,0.0,2.0,63,0.00,,,0.00,0,WeatherCatV1.23B16,2013-11-25 07:39:00,
2013-11-25 02:40:00,13.9,3.3,29.65,WSW,238,0.0,2.0,62,0.00,,,0.00,0,WeatherCatV1.23B16,2013-11-25 07:40:00,
2013-11-25 02:42:00,13.8,3.2,29.65,WSW,238,0.0,0.0,62,0.00,,,0.00,0,WeatherCatV1.23B16,2013-11-25 07:42:00,
2013-11-25 02:44:00,13.8,4.2,29.64,South,187,0.0,1.0,65,0.00,,,0.00,0,WeatherCatV1.23B16,2013-11-25 07:44:00,
2013-11-25 02:45:00,13.7,4.2,29.65,South,187,0.0,1.0,65,0.00,,,0.00,0,WeatherCatV1.23B16,2013-11-25 07:45:00,
2013-11-25 02:47:00,13.7,4.2,29.65,South,188,0.0,0.0,65,0.00,,,0.00,0,WeatherCatV1.23B16,2013-11-25 07:47:00,
2013-11-25 02:48:00,13.7,4.2,29.65,South,188,0.0,0.0,65,0.00,,,0.00,0,WeatherCatV1.23B16,2013-11-25 07:48:00,
2013-11-25 02:49:00,13.6,4.1,29.66,South,188,0.0,0.0,65,0.00,,,0.00,0,WeatherCatV1.23B16,2013-11-25 07:49:00,
2013-11-25 02:50:00,13.6,4.1,29.66,South,188,0.0,0.0,65,0.00,,,0.00,0,WeatherCatV1.23B16,2013-11-25 07:50:00,
2013-11-25 02:52:00,13.5,3.6,29.65,South,188,0.0,0.0,64,0.00,,,0.00,0,WeatherCatV1.23B16,2013-11-25 07:52:00,
2013-11-25 02:53:00,13.5,3.6,29.65,South,188,0.0,0.0,64,0.00,,,0.00,0,WeatherCatV1.23B16,2013-11-25 07:53:00,
2013-11-25 02:54:00,13.4,3.5,29.65,South,188,0.0,0.0,64,0.00,,,0.00,0,WeatherCatV1.23B16,2013-11-25 07:54:00,
2013-11-25 02:55:00,13.4,3.5,29.64,South,188,0.0,0.0,64,0.00,,,0.00,0,WeatherCatV1.23B16,2013-11-25 07:55:00,
2013-11-25 02:57:00,13.3,3.8,29.65,South,188,0.0,0.0,65,0.00,,,0.00,0,WeatherCatV1.23B16,2013-11-25 07:57:00,
2013-11-25 02:58:00,13.3,3.8,29.65,South,188,0.0,0.0,65,0.00,,,0.00,0,WeatherCatV1.23B16,2013-11-25 07:58:00,
2013-11-25 02:59:00,13.3,4.1,29.65,SW,236,2.0,2.0,66,0.00,,,0.00,0,WeatherCatV1.23B16,2013-11-25 07:59:00,
2013-11-25 03:00:00,13.2,3.7,29.65,WSW,238,0.0,2.0,65,0.00,,,0.00,0,WeatherCatV1.23B16,2013-11-25 08:00:00,
2013-11-25 03:02:00,13.2,3.7,29.65,WSW,238,0.0,0.0,65,0.00,,,0.00,0,WeatherCatV1.23B16,2013-11-25 08:02:00,
2013-11-25 03:03:00,13.1,3.6,29.65,WSW,238,0.0,0.0,65,0.00,,,0.00,0,WeatherCatV1.23B16,2013-11-25 08:03:00,
2013-11-25 03:04:00,13.1,3.6,29.66,WSW,238,0.0,0.0,65,0.00,,,0.00,0,WeatherCatV1.23B16,2013-11-25 08:04:00,
2013-11-25 03:05:00,13.1,3.6,29.65,WSW,238,0.0,0.0,65,0.00,,,0.00,0,WeatherCatV1.23B16,2013-11-25 08:05:00,
2013-11-25 03:07:00,13.1,3.9,29.65,WSW,238,0.0,0.0,66,0.00,,,0.00,0,WeatherCatV1.23B16,2013-11-25 08:07:00,
2013-11-25 03:08:00,13.0,3.8,29.65,SW,236,1.0,1.0,66,0.00,,,0.00,0,WeatherCatV1.23B16,2013-11-25 08:08:00,
2013-11-25 03:09:00,13.0,4.1,29.65,SW,234,0.0,2.0,67,0.00,,,0.00,0,WeatherCatV1.23B16,2013-11-25 08:09:00,
2013-11-25 03:10:00,13.0,4.1,29.65,WSW,238,2.0,2.0,67,0.00,,,0.00,0,WeatherCatV1.23B16,2013-11-25 08:10:00,
2013-11-25 03:11:00,13.0,4.5,29.65,SW,234,0.0,2.0,68,0.00,,,0.00,0,WeatherCatV1.23B16,2013-11-25 08:11:00,
2013-11-25 03:13:00,12.9,4.4,29.65,South,180,0.0,0.0,68,0.00,,,0.00,0,WeatherCatV1.23B16,2013-11-25 08:13:00,
2013-11-25 03:14:00,12.8,4.6,29.65,South,180,0.0,0.0,69,0.00,,,0.00,0,WeatherCatV1.23B16,2013-11-25 08:14:00,
2013-11-25 03:15:00,12.8,4.3,29.65,South,180,0.0,0.0,68,0.00,,,0.00,0,WeatherCatV1.23B16,2013-11-25 08:15:00,
2013-11-25 03:16:00,12.8,4.3,29.65,South,180,0.0,0.0,68,0.00,,,0.00,0,WeatherCatV1.23B16,2013-11-25 08:16:00,
2013-11-25 03:18:00,12.8,4.3,29.65,NW,311,0.0,2.0,68,0.00,,,0.00,0,WeatherCatV1.23B16,2013-11-25 08:18:00,
2013-11-25 03:19:00,12.7,4.2,29.65,NW,311,0.0,2.0,68,0.00,,,0.00,0,WeatherCatV1.23B16,2013-11-25 08:19:00,
2013-11-25 03:20:00,12.7,4.2,29.65,NW,311,0.0,0.0,68,0.00,,,0.00,0,WeatherCatV1.23B16,2013-11-25 08:20:00,
2013-11-25 03:21:00,12.7,4.2,29.65,NW,311,0.0,0.0,68,0.00,,,0.00,0,WeatherCatV1.23B16,2013-11-25 08:21:00,
2013-11-25 03:23:00,12.7,4.8,29.65,WSW,245,0.0,1.0,70,0.00,,,0.00,0,WeatherCatV1.23B16,2013-11-25 08:23:00,
2013-11-25 03:24:00,12.7,4.8,29.65,WSW,245,0.0,1.0,70,0.00,,,0.00,0,WeatherCatV1.23B16,2013-11-25 08:24:00,
2013-11-25 03:25:00,12.7,4.8,29.65,WSW,245,0.0,0.0,70,0.00,,,0.00,0,WeatherCatV1.23B16,2013-11-25 08:25:00,
2013-11-25 03:26:00,12.7,4.8,29.66,WSW,245,0.0,0.0,70,0.00,,,0.00,0,WeatherCatV1.23B16,2013-11-25 08:26:00,
2013-11-25 03:29:00,12.7,4.8,29.66,WSW,245,0.0,0.0,70,0.00,,,0.00,0,WeatherCatV1.23B16,2013-11-25 08:29:00,
2013-11-25 03:30:00,12.7,4.5,29.66,WSW,238,0.0,0.0,69,0.00,,,0.00,0,WeatherCatV1.23B16,2013-11-25 08:30:00,
2013-11-25 03:31:00,12.7,4.5,29.66,WSW,243,0.0,0.0,69,0.00,,,0.00,0,WeatherCatV1.23B16,2013-11-25 08:31:00,
2013-11-25 03:34:00,12.7,4.8,29.66,WSW,243,0.0,0.0,70,0.00,,,0.00,0,WeatherCatV1.23B16,2013-11-25 08:34:00,
2013-11-25 03:35:00,12.7,4.5,29.66,WSW,243,0.0,0.0,69,0.00,,,0.00,0,WeatherCatV1.23B16,2013-11-25 08:35:00,
2013-11-25 03:36:00,12.7,4.5,29.66,WSW,243,0.0,0.0,69,0.00,,,0.00,0,WeatherCatV1.23B16,2013-11-25 08:36:00,
2013-11-25 03:39:00,12.8,4.6,29.66,WSW,243,0.0,0.0,69,0.00,,,0.00,0,WeatherCatV1.23B16,2013-11-25 08:39:00,
2013-11-25 03:40:00,12.8,4.9,29.66,WSW,243,0.0,0.0,70,0.00,,,0.00,0,WeatherCatV1.23B16,2013-11-25 08:40:00,
2013-11-25 03:41:00,12.8,4.9,29.66,WSW,243,0.0,0.0,70,0.00,,,0.00,0,WeatherCatV1.23B16,2013-11-25 08:41:00,
2013-11-25 03:44:00,12.8,4.9,29.66,WSW,243,0.0,0.0,70,0.00,,,0.00,0,WeatherCatV1.23B16,2013-11-25 08:44:00,
2013-11-25 03:45:00,12.9,5.0,29.66,WSW,243,0.0,0.0,70,0.00,,,0.00,0,WeatherCatV1.23B16,2013-11-25 08:45:00,
2013-11-25 03:46:00,12.9,5.0,29.66,WSW,243,0.0,1.0,70,0.00,,,0.00,0,WeatherCatV1.23B16,2013-11-25 08:46:00,
2013-11-25 03:47:00,12.9,4.7,29.66,WSW,243,0.0,1.0,69,0.00,,,0.00,0,WeatherCatV1.23B16,2013-11-25 08:47:00,
2013-11-25 03:49:00,12.9,5.0,29.66,WSW,243,0.0,0.0,70,0.00,,,0.00,0,WeatherCatV1.23B16,2013-11-25 08:49:00,
2013-11-25 03:51:00,13.0,5.1,29.66,WSW,243,0.0,0.0,70,0.00,,,0.00,0,WeatherCatV1.23B16,2013-11-25 08:51:00,
2013-11-25 03:52:00,13.0,5.1,29.66,WSW,243,0.0,0.0,70,0.00,,,0.00,0,WeatherCatV1.23B16,2013-11-25 08:52:00,
2013-11-25 03:53:00,13.0,5.1,29.66,WSW,243,0.0,0.0,70,0.00,,,0.00,0,WeatherCatV1.23B16,2013-11-25 08:53:00,
2013-11-25 03:54:00,13.0,5.4,29.66,WSW,243,0.0,0.0,71,0.00,,,0.00,0,WeatherCatV1.23B16,2013-11-25 08:54:00,
2013-11-25 03:56:00,13.0,5.1,29.66,WSW,244,0.0,0.0,70,0.00,,,0.00,0,WeatherCatV1.23B16,2013-11-25 08:56:00,
2013-11-25 03:57:00,13.0,5.1,29.66,WSW,244,0.0,0.0,70,0.00,,,0.00,0,WeatherCatV1.23B16,2013-11-25 08:57:00,
2013-11-25 03:58:00,13.0,5.4,29.66,WSW,244,0.0,0.0,71,0.00,,,0.00,0,WeatherCatV1.23B16,2013-11-25 08:58:00,
2013-11-25 04:00:00,13.1,4.9,29.66,WSW,244,0.0,0.0,69,0.00,,,0.00,0,WeatherCatV1.23B16,2013-11-25 09:00:00,
2013-11-25 04:01:00,13.1,3.9,29.66,WSW,244,0.0,0.0,66,0.00,,,0.00,0,WeatherCatV1.23B16,2013-11-25 09:01:00,
2013-11-25 04:02:00,13.1,3.9,29.66,WSW,244,0.0,0.0,66,0.00,,,0.00,0,WeatherCatV1.23B16,2013-11-25 09:02:00,
2013-11-25 04:03:00,13.2,4.3,29.66,WSW,244,0.0,1.0,67,0.00,,,0.00,0,WeatherCatV1.23B16,2013-11-25 09:03:00,
2013-11-25 04:05:00,13.3,4.8,29.66,South,180,0.0,0.0,68,0.00,,,0.00,0,WeatherCatV1.23B16,2013-11-25 09:05:00,
2013-11-25 04:07:00,13.4,4.8,29.67,NW,313,2.0,2.0,68,0.00,,,0.00,0,WeatherCatV1.23B16,2013-11-25 09:07:00,
2013-11-25 04:09:00,13.5,4.3,29.66,NW,309,0.0,2.0,66,0.00,,,0.00,0,WeatherCatV1.23B16,2013-11-25 09:09:00,
2013-11-25 04:10:00,13.6,4.4,29.66,NW,309,0.0,0.0,66,0.00,,,0.00,0,WeatherCatV1.23B16,2013-11-25 09:10:00,
2013-11-25 04:12:00,13.7,4.5,29.66,NW,309,0.0,0.0,66,0.00,,,0.00,0,WeatherCatV1.23B16,2013-11-25 09:12:00,
2013-11-25 04:13:00,13.7,4.5,29.66,NW,309,0.0,0.0,66,0.00,,,0.00,0,WeatherCatV1.23B16,2013-11-25 09:13:00,
2013-11-25 04:14:00,13.7,4.2,29.66,NW,309,0.0,0.0,65,0.00,,,0.00,0,WeatherCatV1.23B16,2013-11-25 09:14:00,
2013-11-25 04:15:00,13.7,4.2,29.66,NW,309,0.0,0.0,65,0.00,,,0.00,0,WeatherCatV1.23B16,2013-11-25 09:15:00,
2013-11-25 04:17:00,13.8,4.2,29.66,NW,308,0.0,0.0,65,0.00,,,0.00,0,WeatherCatV1.23B16,2013-11-25 09:17:00,
2013-11-25 04:18:00,13.8,4.2,29.66,NW,308,0.0,1.0,65,0.00,,,0.00,0,WeatherCatV1.23B16,2013-11-25 09:18:00,
2013-11-25 04:19:00,13.9,4.7,29.66,NW,308,0.0,1.0,66,0.00,,,0.00,0,WeatherCatV1.23B16,2013-11-25 09:19:00,
2013-11-25 04:20:00,13.9,5.0,29.66,NW,308,0.0,1.0,67,0.00,,,0.00,0,WeatherCatV1.23B16,2013-11-25 09:20:00,
2013-11-25 04:22:00,13.9,4.7,29.66,NNW,348,0.0,1.0,66,0.00,,,0.00,0,WeatherCatV1.23B16,2013-11-25 09:22:00,
2013-11-25 04:23:00,13.9,5.3,29.66,NNW,348,0.0,0.0,68,0.00,,,0.00,0,WeatherCatV1.23B16,2013-11-25 09:23:00,
2013-11-25 04:24:00,14.0,5.4,29.66,NNW,348,0.0,0.0,68,0.00,,,0.00,0,WeatherCatV1.23B16,2013-11-25 09:24:00,
2013-11-25 04:25:00,14.0,5.1,29.66,NNW,348,0.0,0.0,67,0.00,,,0.00,0,WeatherCatV1.23B16,2013-11-25 09:25:00,
2013-11-25 04:26:00,14.0,5.4,29.66,NNW,348,0.0,0.0,68,0.00,,,0.00,0,WeatherCatV1.23B16,2013-11-25 09:26:00,
2013-11-25 04:28:00,14.0,5.4,29.67,SW,236,0.0,3.0,68,0.00,,,0.00,0,WeatherCatV1.23B16,2013-11-25 09:28:00,
2013-11-25 04:30:00,14.0,5.7,29.66,SW,217,0.0,0.0,69,0.00,,,0.00,0,WeatherCatV1.23B16,2013-11-25 09:30:00,
2013-11-25 04:31:00,14.1,5.8,29.67,SW,217,0.0,0.0,69,0.00,,,0.00,0,WeatherCatV1.23B16,2013-11-25 09:31:00,
2013-11-25 04:33:00,14.1,5.5,29.67,SW,217,0.0,0.0,68,0.00,,,0.00,0,WeatherCatV1.23B16,2013-11-25 09:33:00,
2013-11-25 04:36:00,14.1,5.5,29.66,SW,217,0.0,0.0,68,0.00,,,0.00,0,WeatherCatV1.23B16,2013-11-25 09:36:00,
2013-11-25 04:38:00,14.1,5.5,29.66,SW,217,0.0,0.0,68,0.00,,,0.00,0,WeatherCatV1.23B16,2013-11-25 09:38:00,
2013-11-25 04:39:00,14.0,4.8,29.66,SSW,209,0.0,0.0,66,0.00,,,0.00,0,WeatherCatV1.23B16,2013-11-25 09:39:00,
2013-11-25 04:41:00,14.0,4.8,29.66,SSW,207,0.0,1.0,66,0.00,,,0.00,0,WeatherCatV1.23B16,2013-11-25 09:41:00,
2013-11-25 04:43:00,14.0,4.4,29.67,SSW,192,0.0,0.0,65,0.00,,,0.00,0,WeatherCatV1.23B16,2013-11-25 09:43:00,
2013-11-25 04:45:00,14.0,4.4,29.67,SSW,193,0.0,0.0,65,0.00,,,0.00,0,WeatherCatV1.23B16,2013-11-25 09:45:00,
2013-11-25 04:46:00,14.0,4.4,29.67,SSW,193,0.0,0.0,65,0.00,,,0.00,0,WeatherCatV1.23B16,2013-11-25 09:46:00,
2013-11-25 04:48:00,14.0,4.4,29.66,South,190,0.0,1.0,65,0.00,,,0.00,0,WeatherCatV1.23B16,2013-11-25 09:48:00,
2013-11-25 04:49:00,14.0,4.4,29.66,South,190,0.0,1.0,65,0.00,,,0.00,0,WeatherCatV1.23B16,2013-11-25 09:49:00,
2013-11-25 04:50:00,14.0,4.1,29.66,South,190,0.0,0.0,64,0.00,,,0.00,0,WeatherCatV1.23B16,2013-11-25 09:50:00,
2013-11-25 04:51:00,14.0,4.1,29.66,South,190,0.0,0.0,64,0.00,,,0.00,0,WeatherCatV1.23B16,2013-11-25 09:51:00,
2013-11-25 04:54:00,14.0,4.1,29.66,South,190,0.0,0.0,64,0.00,,,0.00,0,WeatherCatV1.23B16,2013-11-25 09:54:00,
2013-11-25 04:56:00,14.0,3.4,29.66,South,190,0.0,0.0,62,0.00,,,0.00,0,WeatherCatV1.23B16,2013-11-25 09:56:00,
2013-11-25 04:59:00,14.0,4.1,29.66,South,190,0.0,0.0,64,0.00,,,0.00,0,WeatherCatV1.23B16,2013-11-25 09:59:00,
2013-11-25 05:00:00,14.0,4.1,29.66,South,190,0.0,0.0,64,0.00,,,0.00,0,WeatherCatV1.23B16,2013-11-25 10:00:00,
2013-11-25 05:01:00,14.0,4.1,29.66,South,190,0.0,0.0,64,0.00,,,0.00,0,WeatherCatV1.23B16,2013-11-25 10:01:00,
2013-11-25 05:02:00,14.0,4.1,29.67,South,190,0.0,0.0,64,0.00,,,0.00,0,WeatherCatV1.23B16,2013-11-25 10:02:00,
2013-11-25 05:04:00,14.1,4.2,29.67,South,190,0.0,0.0,64,0.00,,,0.00,0,WeatherCatV1.23B16,2013-11-25 10:04:00,
2013-11-25 05:05:00,14.1,4.2,29.67,South,190,0.0,0.0,64,0.00,,,0.00,0,WeatherCatV1.23B16,2013-11-25 10:05:00,
2013-11-25 05:06:00,14.1,3.8,29.66,South,190,0.0,0.0,63,0.00,,,0.00,0,WeatherCatV1.23B16,2013-11-25 10:06:00,
2013-11-25 05:07:00,14.1,3.8,29.66,South,190,0.0,0.0,63,0.00,,,0.00,0,WeatherCatV1.23B16,2013-11-25 10:07:00,
2013-11-25 05:10:00,14.1,3.8,29.67,South,190,0.0,1.0,63,0.00,,,0.00,0,WeatherCatV1.23B16,2013-11-25 10:10:00,
2013-11-25 05:11:00,14.1,4.5,29.67,South,190,0.0,0.0,65,0.00,,,0.00,0,WeatherCatV1.23B16,2013-11-25 10:11:00,
2013-11-25 05:12:00,14.2,4.3,29.67,South,190,0.0,0.0,64,0.00,,,0.00,0,WeatherCatV1.23B16,2013-11-25 10:12:00,
2013-11-25 05:15:00,14.2,4.6,29.68,South,190,0.0,0.0,65,0.00,,,0.00,0,WeatherCatV1.23B16,2013-11-25 10:15:00,
2013-11-25 05:16:00,14.2,4.6,29.68,South,190,1.0,1.0,65,0.00,,,0.00,0,WeatherCatV1.23B16,2013-11-25 10:16:00,
2013-11-25 05:17:00,14.2,4.6,29.68,South,190,0.0,1.0,65,0.00,,,0.00,0,WeatherCatV1.23B16,2013-11-25 10:17:00,
2013-11-25 05:18:00,14.3,4.4,29.68,South,190,0.0,0.0,64,0.00,,,0.00,0,WeatherCatV1.23B16,2013-11-25 10:18:00,
2013-11-25 05:20:00,14.3,3.7,29.67,South,190,0.0,0.0,62,0.00,,,0.00,0,WeatherCatV1.23B16,2013-11-25 10:20:00,
2013-11-25 05:21:00,14.3,3.3,29.67,South,190,0.0,0.0,61,0.00,,,0.00,0,WeatherCatV1.23B16,2013-11-25 10:21:00,
2013-11-25 05:22:00,14.3,3.3,29.67,South,190,0.0,0.0,61,0.00,,,0.00,0,WeatherCatV1.23B16,2013-11-25 10:22:00,
2013-11-25 05:23:00,14.3,3.7,29.67,South,190,0.0,0.0,62,0.00,,,0.00,0,WeatherCatV1.23B16,2013-11-25 10:23:00,
2013-11-25 05:25:00,14.4,4.1,29.68,SW,231,2.0,3.0,63,0.00,,,0.00,0,WeatherCatV1.23B16,2013-11-25 10:25:00,
2013-11-25 05:26:00,14.4,4.1,29.68,SW,231,0.0,3.0,63,0.00,,,0.00,0,WeatherCatV1.23B16,2013-11-25 10:26:00,
2013-11-25 05:27:00,14.4,4.1,29.68,SW,231,0.0,0.0,63,0.00,,,0.00,0,WeatherCatV1.23B16,2013-11-25 10:27:00,
2013-11-25 05:28:00,14.4,4.5,29.68,SW,231,0.0,0.0,64,0.00,,,0.00,0,WeatherCatV1.23B16,2013-11-25 10:28:00,
2013-11-25 05:30:00,14.5,4.6,29.68,SW,231,0.0,0.0,64,0.00,,,0.00,0,WeatherCatV1.23B16,2013-11-25 10:30:00,
2013-11-25 05:31:00,14.5,4.6,29.68,SW,231,0.0,0.0,64,0.00,,,0.00,0,WeatherCatV1.23B16,2013-11-25 10:31:00,
2013-11-25 05:32:00,14.5,4.6,29.68,SW,231,0.0,0.0,64,0.00,,,0.00,0,WeatherCatV1.23B16,2013-11-25 10:32:00,
2013-11-25 05:33:00,14.5,4.6,29.68,SW,231,0.0,0.0,64,0.00,,,0.00,0,WeatherCatV1.23B16,2013-11-25 10:33:00,
2013-11-25 05:35:00,14.5,4.9,29.68,SW,231,0.0,0.0,65,0.00,,,0.00,0,WeatherCatV1.23B16,2013-11-25 10:35:00,
2013-11-25 05:36:00,14.5,4.9,29.68,SW,231,1.0,1.0,65,0.00,,,0.00,0,WeatherCatV1.23B16,2013-11-25 10:36:00,
2013-11-25 05:37:00,14.5,5.2,29.68,SW,231,0.0,1.0,66,0.00,,,0.00,0,WeatherCatV1.23B16,2013-11-25 10:37:00,
2013-11-25 05:38:00,14.5,4.9,29.69,SW,231,0.0,0.0,65,0.00,,,0.00,0,WeatherCatV1.23B16,2013-11-25 10:38:00,
2013-11-25 05:40:00,14.5,4.9,29.69,SW,231,0.0,0.0,65,0.00,,,0.00,0,WeatherCatV1.23B16,2013-11-25 10:40:00,
2013-11-25 05:42:00,14.5,4.9,29.68,SW,231,0.0,0.0,65,0.00,,,0.00,0,WeatherCatV1.23B16,2013-11-25 10:42:00,
2013-11-25 05:43:00,14.6,5.3,29.69,SW,231,0.0,0.0,66,0.00,,,0.00,0,WeatherCatV1.23B16,2013-11-25 10:43:00,
2013-11-25 05:44:00,14.6,5.3,29.69,SW,231,0.0,1.0,66,0.00,,,0.00,0,WeatherCatV1.23B16,2013-11-25 10:44:00,
2013-11-25 05:46:00,14.5,4.6,29.69,SW,231,0.0,2.0,64,0.00,,,0.00,0,WeatherCatV1.23B16,2013-11-25 10:46:00,
2013-11-25 05:47:00,14.5,4.9,29.68,SW,231,0.0,1.0,65,0.00,,,0.00,0,WeatherCatV1.23B16,2013-11-25 10:47:00,
2013-11-25 05:48:00,14.5,4.9,29.69,SW,231,0.0,1.0,65,0.00,,,0.00,0,WeatherCatV1.23B16,2013-11-25 10:48:00,
2013-11-25 05:49:00,14.5,4.9,29.69,SW,231,0.0,1.0,65,0.00,,,0.00,0,WeatherCatV1.23B16,2013-11-25 10:49:00,
2013-11-25 05:51:00,14.5,4.9,29.69,SW,231,0.0,0.0,65,0.00,,,0.00,0,WeatherCatV1.23B16,2013-11-25 10:51:00,
2013-11-25 05:52:00,14.5,4.9,29.69,SW,231,0.0,0.0,65,0.00,,,0.00,0,WeatherCatV1.23B16,2013-11-25 10:52:00,
2013-11-25 05:53:00,14.5,4.9,29.70,SW,231,0.0,0.0,65,0.00,,,0.00,0,WeatherCatV1.23B16,2013-11-25 10:53:00,
2013-11-25 05:54:00,14.5,4.9,29.70,SW,231,0.0,0.0,65,0.00,,,0.00,0,WeatherCatV1.23B16,2013-11-25 10:54:00,
2013-11-25 05:56:00,14.5,4.6,29.70,SW,231,0.0,0.0,64,0.00,,,0.00,0,WeatherCatV1.23B16,2013-11-25 10:56:00,
2013-11-25 05:57:00,14.5,4.9,29.70,SW,231,0.0,0.0,65,0.00,,,0.00,0,WeatherCatV1.23B16,2013-11-25 10:57:00,
2013-11-25 05:58:00,14.5,5.2,29.70,SW,231,0.0,0.0,66,0.00,,,0.00,0,WeatherCatV1.23B16,2013-11-25 10:58:00,
2013-11-25 05:59:00,14.5,5.2,29.70,SW,231,0.0,0.0,66,0.00,,,0.00,0,WeatherCatV1.23B16,2013-11-25 10:59:00,
2013-11-25 06:00:00,14.5,5.2,29.70,SW,231,0.0,0.0,66,0.00,,,0.00,0,WeatherCatV1.23B16,2013-11-25 11:00:00,
2013-11-25 06:01:00,14.5,5.2,29.70,SW,231,0.0,0.0,66,0.00,,,0.00,0,WeatherCatV1.23B16,2013-11-25 11:01:00,
2013-11-25 06:03:00,14.5,5.6,29.70,SW,231,0.0,0.0,67,0.00,,,0.00,0,WeatherCatV1.23B16,2013-11-25 11:03:00,
2013-11-25 06:04:00,14.5,5.2,29.70,SW,231,0.0,0.0,66,0.00,,,0.00,0,WeatherCatV1.23B16,2013-11-25 11:04:00,
2013-11-25 06:05:00,14.5,5.2,29.70,SW,231,0.0,0.0,66,0.00,,,0.00,0,WeatherCatV1.23B16,2013-11-25 11:05:00,
2013-11-25 06:06:00,14.5,5.2,29.71,SW,231,0.0,0.0,66,0.00,,,0.00,0,WeatherCatV1.23B16,2013-11-25 11:06:00,
2013-11-25 06:08:00,14.4,5.2,29.71,SW,231,0.0,0.0,66,0.00,,,0.00,0,WeatherCatV1.23B16,2013-11-25 11:08:00,
2013-11-25 06:09:00,14.4,5.2,29.71,SW,231,0.0,0.0,66,0.00,,,0.00,0,WeatherCatV1.23B16,2013-11-25 11:09:00,
2013-11-25 06:10:00,14.4,5.2,29.72,SW,231,0.0,0.0,66,0.00,,,0.00,0,WeatherCatV1.23B16,2013-11-25 11:10:00,
2013-11-25 06:11:00,14.4,5.2,29.71,SW,231,0.0,0.0,66,0.00,,,0.00,0,WeatherCatV1.23B16,2013-11-25 11:11:00,
2013-11-25 06:13:00,14.4,5.2,29.71,SW,231,0.0,0.0,66,0.00,,,0.00,0,WeatherCatV1.23B16,2013-11-25 11:13:00,
2013-11-25 06:14:00,14.4,5.5,29.71,SW,231,0.0,0.0,67,0.00,,,0.00,0,WeatherCatV1.23B16,2013-11-25 11:14:00,
2013-11-25 06:15:00,14.4,5.5,29.71,SW,231,0.0,0.0,67,0.00,,,0.00,0,WeatherCatV1.23B16,2013-11-25 11:15:00,
2013-11-25 06:16:00,14.4,5.5,29.71,SW,231,0.0,0.0,67,0.00,,,0.00,0,WeatherCatV1.23B16,2013-11-25 11:16:00,
2013-11-25 06:18:00,14.4,5.2,29.71,SW,231,0.0,0.0,66,0.00,,,0.00,0,WeatherCatV1.23B16,2013-11-25 11:18:00,
2013-11-25 06:20:00,14.4,4.8,29.72,SW,231,0.0,0.0,65,0.00,,,0.00,0,WeatherCatV1.23B16,2013-11-25 11:20:00,
2013-11-25 06:21:00,14.4,4.8,29.72,SW,231,0.0,0.0,65,0.00,,,0.00,0,WeatherCatV1.23B16,2013-11-25 11:21:00,
2013-11-25 06:22:00,14.4,4.8,29.72,SW,231,0.0,1.0,65,0.00,,,0.00,0,WeatherCatV1.23B16,2013-11-25 11:22:00,
2013-11-25 06:23:00,14.4,5.2,29.72,SW,231,0.0,1.0,66,0.00,,,0.00,0,WeatherCatV1.23B16,2013-11-25 11:23:00,
2013-11-25 06:25:00,14.5,5.2,29.72,SW,231,0.0,0.0,66,0.00,,,0.00,0,WeatherCatV1.23B16,2013-11-25 11:25:00,
2013-11-25 06:26:00,14.4,5.2,29.72,SW,231,0.0,0.0,66,0.00,,,0.00,0,WeatherCatV1.23B16,2013-11-25 11:26:00,
2013-11-25 06:27:00,14.5,5.2,29.72,SW,231,0.0,0.0,66,0.00,,,0.00,0,WeatherCatV1.23B16,2013-11-25 11:27:00,
2013-11-25 06:28:00,14.5,5.2,29.72,SW,231,0.0,0.0,66,0.00,,,0.00,0,WeatherCatV1.23B16,2013-11-25 11:28:00,
2013-11-25 06:31:00,14.5,5.2,29.72,SW,231,0.0,0.0,66,0.00,,,0.00,0,WeatherCatV1.23B16,2013-11-25 11:31:00,
2013-11-25 06:32:00,14.5,5.2,29.72,SW,231,0.0,0.0,66,0.00,,,0.00,0,WeatherCatV1.23B16,2013-11-25 11:32:00,
2013-11-25 06:33:00,14.5,5.6,29.72,SW,231,0.0,0.0,67,0.00,,,0.00,0,WeatherCatV1.23B16,2013-11-25 11:33:00,
2013-11-25 06:36:00,14.5,5.6,29.72,SW,231,0.0,1.0,67,0.00,,,0.00,0,WeatherCatV1.23B16,2013-11-25 11:36:00,
2013-11-25 06:37:00,14.5,5.2,29.72,SW,231,0.0,1.0,66,0.00,,,0.00,0,WeatherCatV1.23B16,2013-11-25 11:37:00,
2013-11-25 06:38:00,14.5,5.2,29.73,SW,231,0.0,1.0,66,0.00,,,0.00,0,WeatherCatV1.23B16,2013-11-25 11:38:00,
2013-11-25 06:41:00,14.6,5.3,29.73,SW,231,0.0,0.0,66,0.00,,,0.00,0,WeatherCatV1.23B16,2013-11-25 11:41:00,
2013-11-25 06:42:00,14.6,5.3,29.73,SW,231,0.0,0.0,66,0.00,,,0.00,0,WeatherCatV1.23B16,2013-11-25 11:42:00,
2013-11-25 06:43:00,14.6,5.7,29.73,SW,231,0.0,1.0,67,0.00,,,0.00,0,WeatherCatV1.23B16,2013-11-25 11:43:00,
2013-11-25 06:46:00,14.6,5.7,29.73,SW,231,0.0,0.0,67,0.00,,,0.00,0,WeatherCatV1.23B16,2013-11-25 11:46:00,
2013-11-25 06:47:00,14.6,5.7,29.73,SW,231,0.0,0.0,67,0.00,,,0.00,0,WeatherCatV1.23B16,2013-11-25 11:47:00,
2013-11-25 06:48:00,14.6,5.7,29.73,SW,231,0.0,0.0,67,0.00,,,0.00,0,WeatherCatV1.23B16,2013-11-25 11:48:00,
2013-11-25 06:49:00,14.7,5.8,29.73,SW,231,0.0,0.0,67,0.00,,,0.00,0,WeatherCatV1.23B16,2013-11-25 11:49:00,
2013-11-25 06:52:00,14.7,5.8,29.73,SW,231,0.0,0.0,67,0.00,,,0.00,0,WeatherCatV1.23B16,2013-11-25 11:52:00,
2013-11-25 06:53:00,14.7,5.8,29.73,SW,231,0.0,0.0,67,0.00,,,0.00,0,WeatherCatV1.23B16,2013-11-25 11:53:00,
2013-11-25 06:54:00,14.7,5.8,29.73,SW,231,0.0,0.0,67,0.00,,,0.00,0,WeatherCatV1.23B16,2013-11-25 11:54:00,
2013-11-25 06:57:00,14.7,4.1,29.73,SSW,203,0.0,0.0,62,0.00,,,0.00,0,WeatherCatV1.23B16,2013-11-25 11:57:00,
2013-11-25 06:58:00,14.7,3.7,29.73,SSW,213,0.0,0.0,61,0.00,,,0.00,0,WeatherCatV1.23B16,2013-11-25 11:58:00,
2013-11-25 06:59:00,14.7,4.1,29.73,SSW,213,0.0,0.0,62,0.00,,,0.00,0,WeatherCatV1.23B16,2013-11-25 11:59:00,
2013-11-25 07:02:00,14.8,4.2,29.73,SSW,213,0.0,0.0,62,0.00,,,0.00,0,WeatherCatV1.23B16,2013-11-25 12:02:00,
2013-11-25 07:03:00,14.8,4.2,29.74,SSW,213,0.0,0.0,62,0.00,,,0.00,0,WeatherCatV1.23B16,2013-11-25 12:03:00,
2013-11-25 07:04:00,14.8,4.2,29.74,SSW,213,0.0,0.0,62,0.00,,,0.00,0,WeatherCatV1.23B16,2013-11-25 12:04:00,
2013-11-25 07:05:00,14.8,4.2,29.74,SSW,213,0.0,0.0,62,0.00,,,0.00,0,WeatherCatV1.23B16,2013-11-25 12:05:00,
2013-11-25 07:08:00,14.8,4.2,29.74,SSW,213,0.0,0.0,62,0.00,,,0.00,5,WeatherCatV1.23B16,2013-11-25 12:08:00,
2013-11-25 07:09:00,14.8,3.5,29.74,SSW,213,0.0,1.0,60,0.00,,,0.00,5,WeatherCatV1.23B16,2013-11-25 12:09:00,
2013-11-25 07:13:00,14.9,3.6,29.74,SSW,213,0.0,0.0,60,0.00,,,0.00,5,WeatherCatV1.23B16,2013-11-25 12:13:00,
2013-11-25 07:14:00,14.9,3.9,29.74,SSW,213,0.0,0.0,61,0.00,,,0.00,5,WeatherCatV1.23B16,2013-11-25 12:14:00,
2013-11-25 07:18:00,15.0,4.7,29.74,SSW,213,0.0,1.0,63,0.00,,,0.00,7,WeatherCatV1.23B16,2013-11-25 12:18:00,
2013-11-25 07:19:00,15.0,4.7,29.75,SSW,213,0.0,0.0,63,0.00,,,0.00,9,WeatherCatV1.23B16,2013-11-25 12:19:00,
2013-11-25 07:20:00,15.0,4.7,29.75,SSW,213,0.0,0.0,63,0.00,,,0.00,9,WeatherCatV1.23B16,2013-11-25 12:20:00,
2013-11-25 07:23:00,15.1,4.8,29.75,SSW,213,0.0,0.0,63,0.00,,,0.00,9,WeatherCatV1.23B16,2013-11-25 12:23:00,
2013-11-25 07:24:00,15.1,4.8,29.75,SSW,213,0.0,0.0,63,0.00,,,0.00,11,WeatherCatV1.23B16,2013-11-25 12:24:00,
2013-11-25 07:25:00,15.1,5.2,29.75,SSW,213,0.0,0.0,64,0.00,,,0.00,11,WeatherCatV1.23B16,2013-11-25 12:25:00,
2013-11-25 07:28:00,15.2,5.2,29.75,SSW,213,0.0,1.0,64,0.00,,,0.00,12,WeatherCatV1.23B16,2013-11-25 12:28:00,
2013-11-25 07:29:00,15.2,5.2,29.75,SW,227,1.0,1.0,64,0.00,,,0.00,12,WeatherCatV1.23B16,2013-11-25 12:29:00,
2013-11-25 07:30:00,15.2,5.2,29.75,SW,228,0.0,2.0,64,0.00,,,0.00,12,WeatherCatV1.23B16,2013-11-25 12:30:00,
2013-11-25 07:33:00,15.4,5.8,29.76,West,270,0.0,1.0,65,0.00,,,0.00,14,WeatherCatV1.23B16,2013-11-25 12:33:00,
2013-11-25 07:34:00,15.4,5.8,29.76,West,270,0.0,1.0,65,0.00,,,0.00,14,WeatherCatV1.23B16,2013-11-25 12:34:00,
2013-11-25 07:35:00,15.4,5.4,29.76,West,270,0.0,0.0,64,0.00,,,0.00,14,WeatherCatV1.23B16,2013-11-25 12:35:00,
2013-11-25 07:39:00,15.5,4.8,29.76,West,270,0.0,0.0,62,0.00,,,0.00,18,WeatherCatV1.23B16,2013-11-25 12:39:00,
2013-11-25 07:40:00,15.6,5.3,29.76,West,269,0.0,0.0,63,0.00,,,0.00,19,WeatherCatV1.23B16,2013-11-25 12:40:00,
2013-11-25 07:44:00,15.7,5.4,29.76,South,188,0.0,0.0,63,0.00,,,0.00,21,WeatherCatV1.23B16,2013-11-25 12:44:00,
2013-11-25 07:46:00,15.7,5.0,29.76,South,188,0.0,0.0,62,0.00,,,0.00,23,WeatherCatV1.23B16,2013-11-25 12:46:00,
2013-11-25 07:49:00,15.8,4.1,29.76,NW,322,0.0,1.0,59,0.00,,,0.00,23,WeatherCatV1.23B16,2013-11-25 12:49:00,
2013-11-25 07:50:00,15.8,4.1,29.76,NW,322,0.0,0.0,59,0.00,,,0.00,25,WeatherCatV1.23B16,2013-11-25 12:50:00,
2013-11-25 07:51:00,15.8,3.7,29.76,NW,322,0.0,0.0,58,0.00,,,0.00,25,WeatherCatV1.23B16,2013-11-25 12:51:00,
2013-11-25 07:55:00,15.9,3.8,29.76,NW,322,0.0,0.0,58,0.00,,,0.00,25,WeatherCatV1.23B16,2013-11-25 12:55:00,
2013-11-25 07:56:00,15.9,4.1,29.76,NW,321,0.0,0.0,59,0.00,,,0.00,25,WeatherCatV1.23B16,2013-11-25 12:56:00,
2013-11-25 08:00:00,16.0,4.2,29.77,NW,321,0.0,0.0,59,0.00,,,0.00,26,WeatherCatV1.23B16,2013-11-25 13:00:00,
2013-11-25 08:01:00,16.1,4.7,29.77,NW,321,0.0,0.0,60,0.00,,,0.00,26,WeatherCatV1.23B16,2013-11-25 13:01:00,
2013-11-25 08:05:00,16.2,4.8,29.77,East,82,0.0,1.0,60,0.00,,,0.00,30,WeatherCatV1.23B16,2013-11-25 13:05:00,
2013-11-25 08:06:00,16.2,4.4,29.77,East,82,0.0,1.0,59,0.00,,,0.00,28,WeatherCatV1.23B16,2013-11-25 13:06:00,
2013-11-25 08:10:00,16.4,3.9,29.76,East,82,0.0,0.0,57,0.00,,,0.00,23,WeatherCatV1.23B16,2013-11-25 13:10:00,
2013-11-25 08:11:00,16.5,4.0,29.76,SW,223,0.0,2.0,57,0.00,,,0.00,21,WeatherCatV1.23B16,2013-11-25 13:11:00,
2013-11-25 08:12:00,16.5,4.0,29.76,SW,230,1.0,2.0,57,0.00,,,0.00,21,WeatherCatV1.23B16,2013-11-25 13:12:00,
2013-11-25 08:15:00,16.6,4.8,29.76,WSW,242,0.0,0.0,59,0.00,,,0.00,23,WeatherCatV1.23B16,2013-11-25 13:15:00,
2013-11-25 08:16:00,16.6,5.2,29.76,WSW,242,0.0,0.0,60,0.00,,,0.00,21,WeatherCatV1.23B16,2013-11-25 13:16:00,
2013-11-25 08:17:00,16.6,5.2,29.76,SW,231,0.0,0.0,60,0.00,,,0.00,21,WeatherCatV1.23B16,2013-11-25 13:17:00,
2013-11-25 08:20:00,16.7,4.5,29.77,SW,232,1.0,1.0,58,0.00,,,0.00,26,WeatherCatV1.23B16,2013-11-25 13:20:00,
2013-11-25 08:21:00,16.7,4.2,29.77,SW,221,0.0,1.0,57,0.00,,,0.00,26,WeatherCatV1.23B16,2013-11-25 13:21:00,
2013-11-25 08:22:00,16.8,3.5,29.77,SW,221,0.0,0.0,55,0.00,,,0.00,26,WeatherCatV1.23B16,2013-11-25 13:22:00,
2013-11-25 08:25:00,16.8,3.9,29.77,SW,221,0.0,1.0,56,0.00,,,0.00,25,WeatherCatV1.23B16,2013-11-25 13:25:00,
2013-11-25 08:26:00,16.9,4.0,29.77,SW,221,0.0,1.0,56,0.00,,,0.00,25,WeatherCatV1.23B16,2013-11-25 13:26:00,
2013-11-25 08:27:00,16.8,3.9,29.77,SW,221,0.0,1.0,56,0.00,,,0.00,25,WeatherCatV1.23B16,2013-11-25 13:27:00,
2013-11-25 08:28:00,16.9,4.0,29.77,SW,221,0.0,0.0,56,0.00,,,0.00,25,WeatherCatV1.23B16,2013-11-25 13:28:00,
2013-11-25 08:30:00,17.0,4.4,29.77,SW,221,0.0,0.0,57,0.00,,,0.00,25,WeatherCatV1.23B16,2013-11-25 13:30:00,
2013-11-25 08:32:00,17.0,4.8,29.77,SW,221,0.0,0.0,58,0.00,,,0.00,25,WeatherCatV1.23B16,2013-11-25 13:32:00,
2013-11-25 08:33:00,17.0,4.8,29.77,SW,221,0.0,0.0,58,0.00,,,0.00,25,WeatherCatV1.23B16,2013-11-25 13:33:00,
2013-11-25 08:35:00,17.1,3.8,29.77,SW,221,0.0,0.0,55,0.00,,,0.00,26,WeatherCatV1.23B16,2013-11-25 13:35:00,
2013-11-25 08:37:00,17.1,3.8,29.78,SW,221,0.0,0.0,55,0.00,,,0.00,26,WeatherCatV1.23B16,2013-11-25 13:37:00,
2013-11-25 08:38:00,17.1,4.5,29.77,SW,221,0.0,0.0,57,0.00,,,0.00,26,WeatherCatV1.23B16,2013-11-25 13:38:00,
2013-11-25 08:41:00,17.2,4.2,29.78,SW,221,0.0,0.0,56,0.00,,,0.00,28,WeatherCatV1.23B16,2013-11-25 13:41:00,
2013-11-25 08:42:00,17.2,3.5,29.78,WNW,284,0.0,1.0,54,0.00,,,0.00,28,WeatherCatV1.23B16,2013-11-25 13:42:00,
2013-11-25 08:43:00,17.2,3.0,29.78,WNW,284,0.0,1.0,53,0.00,,,0.00,26,WeatherCatV1.23B16,2013-11-25 13:43:00,
2013-11-25 08:44:00,17.3,3.1,29.78,WNW,284,0.0,1.0,53,0.00,,,0.00,26,WeatherCatV1.23B16,2013-11-25 13:44:00,
2013-11-25 08:46:00,17.3,3.1,29.78,WNW,284,0.0,0.0,53,0.00,,,0.00,26,WeatherCatV1.23B16,2013-11-25 13:46:00,
2013-11-25 08:47:00,17.4,3.2,29.78,South,175,0.0,0.0,53,0.00,,,0.00,28,WeatherCatV1.23B16,2013-11-25 13:47:00,
2013-11-25 08:48:00,17.5,3.3,29.77,SSW,192,0.0,2.0,53,0.00,,,0.00,30,WeatherCatV1.23B16,2013-11-25 13:48:00,
2013-11-25 08:49:00,17.5,3.3,29.77,SSW,192,1.0,2.0,53,0.00,,,0.00,32,WeatherCatV1.23B16,2013-11-25 13:49:00,
2013-11-25 08:51:00,17.6,3.8,29.78,South,189,0.0,0.0,54,0.00,,,0.00,33,WeatherCatV1.23B16,2013-11-25 13:51:00,
2013-11-25 08:52:00,17.7,3.9,29.77,South,189,0.0,0.0,54,0.00,,,0.00,33,WeatherCatV1.23B16,2013-11-25 13:52:00,
2013-11-25 08:53:00,17.7,3.5,29.77,South,189,0.0,0.0,53,0.00,,,0.00,32,WeatherCatV1.23B16,2013-11-25 13:53:00,
2013-11-25 08:54:00,17.8,3.6,29.77,South,189,0.0,0.0,53,0.00,,,0.00,39,WeatherCatV1.23B16,2013-11-25 13:54:00,
2013-11-25 08:57:00,17.9,3.7,29.77,South,189,0.0,0.0,53,0.00,,,0.00,33,WeatherCatV1.23B16,2013-11-25 13:57:00,
2013-11-25 08:59:00,18.0,4.2,29.78,South,189,0.0,0.0,54,0.00,,,0.00,42,WeatherCatV1.23B16,2013-11-25 13:59:00,
2013-11-25 09:00:00,18.0,4.2,29.78,South,189,0.0,0.0,54,0.00,,,0.00,56,WeatherCatV1.23B16,2013-11-25 14:00:00,
2013-11-25 09:02:00,18.1,4.3,29.78,South,189,0.0,0.0,54,0.00,,,0.00,39,WeatherCatV1.23B16,2013-11-25 14:02:00,
2013-11-25 09:04:00,18.2,4.4,29.79,WSW,242,0.0,3.0,54,0.00,,,0.00,53,WeatherCatV1.23B16,2013-11-25 14:04:00,
2013-11-25 09:05:00,18.3,3.2,29.79,WSW,242,0.0,3.0,51,0.00,,,0.00,40,WeatherCatV1.23B16,2013-11-25 14:05:00,
2013-11-25 09:07:00,18.5,3.8,29.79,NW,304,1.0,2.0,52,0.00,,,0.00,51,WeatherCatV1.23B16,2013-11-25 14:07:00,
2013-11-25 09:10:00,18.6,3.1,29.78,NW,304,0.0,0.0,50,0.00,,,0.00,156,WeatherCatV1.23B16,2013-11-25 14:10:00,
2013-11-25 09:11:00,18.7,3.6,29.78,NW,304,0.0,0.0,51,0.00,,,0.00,132,WeatherCatV1.23B16,2013-11-25 14:11:00,
2013-11-25 09:12:00,18.8,3.3,29.79,NW,318,0.0,1.0,50,0.00,,,0.00,63,WeatherCatV1.23B16,2013-11-25 14:12:00,
2013-11-25 09:15:00,19.0,2.1,29.80,NNE,13,0.0,2.0,47,0.00,,,0.00,62,WeatherCatV1.23B16,2013-11-25 14:15:00,
2013-11-25 09:16:00,19.1,2.7,29.80,WNW,300,0.0,2.0,48,0.00,,,0.00,53,WeatherCatV1.23B16,2013-11-25 14:16:00,
2013-11-25 09:18:00,19.2,1.9,29.80,NNW,339,1.0,1.0,46,0.00,,,0.00,42,WeatherCatV1.23B16,2013-11-25 14:18:00,
2013-11-25 09:20:00,19.4,2.0,29.79,NNW,336,1.0,14.0,46,0.00,,,0.00,33,WeatherCatV1.23B16,2013-11-25 14:20:00,
2013-11-25 09:21:00,19.5,2.6,29.80,WNW,282,2.0,14.0,47,0.00,,,0.00,32,WeatherCatV1.23B16,2013-11-25 14:21:00,
2013-11-25 09:23:00,19.6,2.2,29.80,NNE,31,5.0,15.0,46,0.00,,,0.00,32,WeatherCatV1.23B16,2013-11-25 14:23:00,
2013-11-25 09:25:00,19.7,1.4,29.79,East,80,0.0,3.0,44,0.00,,,0.00,30,WeatherCatV1.23B16,2013-11-25 14:25:00,
2013-11-25 09:26:00,19.7,1.4,29.79,East,80,0.0,3.0,44,0.00,,,0.00,30,WeatherCatV1.23B16,2013-11-25 14:26:00,
2013-11-25 09:28:00,19.7,0.9,29.80,NW,312,0.0,4.0,43,0.00,,,0.00,33,WeatherCatV1.23B16,2013-11-25 14:28:00,
2013-11-25 09:29:00,19.7,1.8,29.81,SW,231,0.0,4.0,45,0.00,,,0.00,40,WeatherCatV1.23B16,2013-11-25 14:29:00,
2013-11-25 09:31:00,19.7,1.4,29.80,ENE,63,1.0,5.0,44,0.00,,,0.00,44,WeatherCatV1.23B16,2013-11-25 14:31:00,
2013-11-25 09:32:00,19.7,0.9,29.80,NNE,26,8.0,12.0,43,0.00,,,0.00,83,WeatherCatV1.23B16,2013-11-25 14:32:00,
2013-11-25 09:33:00,19.7,0.9,29.80,East,80,3.0,12.0,43,0.00,,,0.00,76,WeatherCatV1.23B16,2013-11-25 14:33:00,
2013-11-25 09:34:00,19.7,0.4,29.80,WNW,298,0.0,4.0,42,0.00,,,0.00,40,WeatherCatV1.23B16,2013-11-25 14:34:00,
2013-11-25 09:36:00,19.8,-0.6,29.80,NW,317,0.0,5.0,40,0.00,,,0.00,42,WeatherCatV1.23B16,2013-11-25 14:36:00,
2013-11-25 09:37:00,19.9,0.6,29.80,NNW,340,1.0,5.0,42,0.00,,,0.00,39,WeatherCatV1.23B16,2013-11-25 14:37:00,
2013-11-25 09:38:00,19.9,1.0,29.81,NNW,346,0.0,3.0,43,0.00,,,0.00,53,WeatherCatV1.23B16,2013-11-25 14:38:00,
2013-11-25 09:39:00,20.0,2.1,29.80,NNE,23,2.0,3.0,45,0.00,,,0.00,51,WeatherCatV1.23B16,2013-11-25 14:39:00,
2013-11-25 09:41:00,20.0,1.1,29.80,North,0,0.0,3.0,43,0.00,,,0.00,40,WeatherCatV1.23B16,2013-11-25 14:41:00,
2013-11-25 09:42:00,20.1,2.2,29.80,NNW,347,4.0,5.0,45,0.00,,,0.00,33,WeatherCatV1.23B16,2013-11-25 14:42:00,
2013-11-25 09:43:00,20.1,2.7,29.80,North,350,3.0,5.0,46,0.00,,,0.00,33,WeatherCatV1.23B16,2013-11-25 14:43:00,
2013-11-25 09:44:00,20.2,1.8,29.80,NNW,336,0.0,3.0,44,0.00,,,0.00,32,WeatherCatV1.23B16,2013-11-25 14:44:00,
2013-11-25 09:46:00,20.3,0.9,29.80,North,355,3.0,3.0,42,0.00,,,0.00,42,WeatherCatV1.23B16,2013-11-25 14:46:00,
2013-11-25 09:47:00,20.3,0.9,29.80,North,5,7.0,7.0,42,0.00,,,0.00,46,WeatherCatV1.23B16,2013-11-25 14:47:00,
2013-11-25 09:48:00,20.4,2.5,29.80,NNW,346,10.0,15.0,45,0.00,,,0.00,44,WeatherCatV1.23B16,2013-11-25 14:48:00,
2013-11-25 09:49:00,20.4,3.9,29.79,North,5,12.0,17.0,48,0.00,,,0.00,35,WeatherCatV1.23B16,2013-11-25 14:49:00,
2013-11-25 09:51:00,20.5,4.0,29.79,NNW,334,11.0,16.0,48,0.00,,,0.00,33,WeatherCatV1.23B16,2013-11-25 14:51:00,
2013-11-25 09:52:00,20.5,4.4,29.79,North,11,11.0,11.0,49,0.00,,,0.00,33,WeatherCatV1.23B16,2013-11-25 14:52:00,
2013-11-25 09:53:00,20.5,4.4,29.78,NNW,348,4.0,17.0,49,0.00,,,0.00,33,WeatherCatV1.23B16,2013-11-25 14:53:00,
2013-11-25 09:54:00,20.6,3.1,29.78,North,355,9.0,11.0,46,0.00,,,0.00,33,WeatherCatV1.23B16,2013-11-25 14:54:00,
2013-11-25 09:56:00,20.6,3.1,29.77,NNW,327,10.0,14.0,46,0.00,,,0.00,33,WeatherCatV1.23B16,2013-11-25 14:56:00,
2013-11-25 09:58:00,20.7,4.2,29.77,North,355,2.0,16.0,48,0.00,,,0.00,35,WeatherCatV1.23B16,2013-11-25 14:58:00,
2013-11-25 09:59:00,20.7,2.8,29.78,NW,321,4.0,10.0,45,0.00,,,0.00,33,WeatherCatV1.23B16,2013-11-25 14:59:00,
2013-11-25 10:01:00,20.7,2.8,29.77,NW,315,3.0,15.0,45,0.00,,,0.00,33,WeatherCatV1.23B16,2013-11-25 15:01:00,
2013-11-25 10:03:00,20.8,2.4,29.77,WNW,282,3.0,12.0,44,0.00,,,0.00,33,WeatherCatV1.23B16,2013-11-25 15:03:00,
2013-11-25 10:04:00,20.8,2.4,29.78,NNW,340,0.0,12.0,44,0.00,,,0.00,33,WeatherCatV1.23B16,2013-11-25 15:04:00,
2013-11-25 10:07:00,20.9,2.5,29.78,West,277,6.0,12.0,44,0.00,,,0.00,33,WeatherCatV1.23B16,2013-11-25 15:07:00,
2013-11-25 10:08:00,20.9,2.9,29.78,WNW,286,1.0,12.0,45,0.00,,,0.00,63,WeatherCatV1.23B16,2013-11-25 15:08:00,
2013-11-25 10:09:00,21.0,3.0,29.78,NNE,20,1.0,10.0,45,0.00,,,0.00,54,WeatherCatV1.23B16,2013-11-25 15:09:00,
2013-11-25 10:12:00,21.1,3.1,29.80,NW,323,5.0,17.0,45,0.00,,,0.00,44,WeatherCatV1.23B16,2013-11-25 15:12:00,
2013-11-25 10:14:00,21.1,2.2,29.80,NNE,32,0.0,5.0,43,0.00,,,0.00,35,WeatherCatV1.23B16,2013-11-25 15:14:00,
2013-11-25 10:17:00,21.1,3.1,29.80,NNW,334,5.0,12.0,45,0.00,,,0.00,33,WeatherCatV1.23B16,2013-11-25 15:17:00,
2013-11-25 10:19:00,21.2,3.7,29.80,North,355,11.0,13.0,46,0.00,,,0.00,35,WeatherCatV1.23B16,2013-11-25 15:19:00,
2013-11-25 10:20:00,21.1,3.6,29.80,WNW,298,1.0,13.0,46,0.00,,,0.00,37,WeatherCatV1.23B16,2013-11-25 15:20:00,
2013-11-25 10:21:00,21.1,3.1,29.80,NNW,346,3.0,11.0,45,0.00,,,0.00,35,WeatherCatV1.23B16,2013-11-25 15:21:00,
2013-11-25 10:22:00,21.1,3.1,29.80,NNE,12,7.0,7.0,45,0.00,,,0.00,35,WeatherCatV1.23B16,2013-11-25 15:22:00,
2013-11-25 10:24:00,21.1,2.6,29.80,North,350,5.0,12.0,44,0.00,,,0.00,42,WeatherCatV1.23B16,2013-11-25 15:24:00,
2013-11-25 10:25:00,21.1,3.6,29.80,NW,314,0.0,12.0,46,0.00,,,0.00,35,WeatherCatV1.23B16,2013-11-25 15:25:00,
2013-11-25 10:26:00,21.1,3.6,29.80,North,5,9.0,12.0,46,0.00,,,0.00,35,WeatherCatV1.23B16,2013-11-25 15:26:00,
2013-11-25 10:28:00,21.1,4.1,29.80,NW,324,6.0,13.0,47,0.00,,,0.00,35,WeatherCatV1.23B16,2013-11-25 15:28:00,
2013-11-25 10:29:00,21.1,4.1,29.80,NE,35,4.0,13.0,47,0.00,,,0.00,33,WeatherCatV1.23B16,2013-11-25 15:29:00,
2013-11-25 10:30:00,21.1,4.1,29.80,WNW,284,0.0,13.0,47,0.00,,,0.00,35,WeatherCatV1.23B16,2013-11-25 15:30:00,
2013-11-25 10:31:00,21.1,4.5,29.80,North,5,4.0,10.0,48,0.00,,,0.00,35,WeatherCatV1.23B16,2013-11-25 15:31:00,
2013-11-25 10:34:00,21.1,4.5,29.79,North,355,4.0,4.0,48,0.00,,,0.00,40,WeatherCatV1.23B16,2013-11-25 15:34:00,
2013-11-25 10:35:00,21.1,4.5,29.80,North,0,0.0,3.0,48,0.00,,,0.00,51,WeatherCatV1.23B16,2013-11-25 15:35:00,
2013-11-25 10:36:00,21.1,3.1,29.80,NNE,15,0.0,3.0,45,0.00,,,0.00,49,WeatherCatV1.23B16,2013-11-25 15:36:00,
2013-11-25 10:39:00,21.1,2.6,29.80,NNW,348,0.0,4.0,44,0.00,,,0.00,67,WeatherCatV1.23B16,2013-11-25 15:39:00,
2013-11-25 10:40:00,21.2,3.7,29.80,NE,35,4.0,7.0,46,0.00,,,0.00,49,WeatherCatV1.23B16,2013-11-25 15:40:00,
2013-11-25 10:41:00,21.2,3.7,29.80,NNE,13,2.0,7.0,46,0.00,,,0.00,40,WeatherCatV1.23B16,2013-11-25 15:41:00,
2013-11-25 10:42:00,21.2,3.2,29.80,North,5,0.0,7.0,45,0.00,,,0.00,51,WeatherCatV1.23B16,2013-11-25 15:42:00,
2013-11-25 10:44:00,21.3,2.3,29.81,North,5,5.0,7.0,43,0.00,,,0.00,118,WeatherCatV1.23B16,2013-11-25 15:44:00,
2013-11-25 10:45:00,21.4,4.8,29.80,North,5,7.0,9.0,48,0.00,,,0.00,125,WeatherCatV1.23B16,2013-11-25 15:45:00,
2013-11-25 10:46:00,21.4,4.3,29.81,North,0,4.0,9.0,47,0.00,,,0.00,98,WeatherCatV1.23B16,2013-11-25 15:46:00,
2013-11-25 10:47:00,21.5,4.0,29.80,North,355,2.0,5.0,46,0.00,,,0.00,74,WeatherCatV1.23B16,2013-11-25 15:47:00,
2013-11-25 10:49:00,21.6,4.1,29.80,NNW,348,5.0,6.0,46,0.00,,,0.00,130,WeatherCatV1.23B16,2013-11-25 15:49:00,
2013-11-25 10:50:00,21.6,3.6,29.80,North,349,2.0,6.0,45,0.00,,,0.00,199,WeatherCatV1.23B16,2013-11-25 15:50:00,
2013-11-25 10:51:00,21.7,3.7,29.80,North,5,3.0,9.0,45,0.00,,,0.00,197,WeatherCatV1.23B16,2013-11-25 15:51:00,
2013-11-25 10:53:00,21.8,4.7,29.80,NNE,15,2.0,5.0,47,0.00,,,0.00,241,WeatherCatV1.23B16,2013-11-25 15:53:00,
2013-11-25 10:54:00,21.8,3.8,29.80,North,0,3.0,3.0,45,0.00,,,0.00,163,WeatherCatV1.23B16,2013-11-25 15:54:00,
2013-11-25 10:55:00,21.9,3.4,29.80,North,0,0.0,3.0,44,0.00,,,0.00,163,WeatherCatV1.23B16,2013-11-25 15:55:00,
2013-11-25 10:56:00,21.9,3.4,29.80,North,5,0.0,3.0,44,0.00,,,0.00,403,WeatherCatV1.23B16,2013-11-25 15:56:00,
2013-11-25 10:57:00,22.0,2.5,29.80,North,0,2.0,6.0,42,0.00,,,0.00,385,WeatherCatV1.23B16,2013-11-25 15:57:00,
2013-11-25 10:58:00,22.0,2.5,29.80,North,355,3.0,6.0,42,0.00,,,0.00,383,WeatherCatV1.23B16,2013-11-25 15:58:00,
2013-11-25 10:59:00,22.1,3.1,29.80,NNE,17,2.0,4.0,43,0.00,,,0.00,397,WeatherCatV1.23B16,2013-11-25 15:59:00,
2013-11-25 11:00:00,22.2,2.1,29.80,East,90,2.0,3.0,41,0.00,,,0.00,397,WeatherCatV1.23B16,2013-11-25 16:00:00,
2013-11-25 11:01:00,22.2,2.1,29.80,East,89,0.0,3.0,41,0.00,,,0.00,70,WeatherCatV1.23B16,2013-11-25 16:01:00,
2013-11-25 11:02:00,22.3,1.7,29.80,East,90,0.0,3.0,40,0.00,,,0.00,107,WeatherCatV1.23B16,2013-11-25 16:02:00,
2013-11-25 11:03:00,22.3,1.7,29.80,East,90,0.0,0.0,40,0.00,,,0.00,125,WeatherCatV1.23B16,2013-11-25 16:03:00,
2013-11-25 11:04:00,22.4,2.3,29.80,NNE,19,5.0,5.0,41,0.00,,,0.00,146,WeatherCatV1.23B16,2013-11-25 16:04:00,
2013-11-25 11:05:00,22.5,2.9,29.80,NNE,15,0.0,5.0,42,0.00,,,0.00,167,WeatherCatV1.23B16,2013-11-25 16:05:00,
2013-11-25 11:06:00,22.6,2.5,29.80,North,5,6.0,6.0,41,0.00,,,0.00,227,WeatherCatV1.23B16,2013-11-25 16:06:00,
2013-11-25 11:07:00,22.7,3.1,29.79,NNE,12,4.0,6.0,42,0.00,,,0.00,211,WeatherCatV1.23B16,2013-11-25 16:07:00,
2013-11-25 11:08:00,22.7,3.1,29.79,North,11,0.0,5.0,42,0.00,,,0.00,232,WeatherCatV1.23B16,2013-11-25 16:08:00,
2013-11-25 11:09:00,22.8,2.1,29.79,North,9,4.0,5.0,40,0.00,,,0.00,306,WeatherCatV1.23B16,2013-11-25 16:09:00,
2013-11-25 11:10:00,22.9,2.2,29.79,NNE,30,5.0,10.0,40,0.00,,,0.00,336,WeatherCatV1.23B16,2013-11-25 16:10:00,
2013-11-25 11:11:00,23.0,2.3,29.79,NNE,19,6.0,10.0,40,0.00,,,0.00,309,WeatherCatV1.23B16,2013-11-25 16:11:00,
2013-11-25 11:12:00,23.0,2.3,29.79,NNE,18,5.0,10.0,40,0.00,,,0.00,309,WeatherCatV1.23B16,2013-11-25 16:12:00,
2013-11-25 11:13:00,23.0,2.3,29.79,North,5,0.0,4.0,40,0.00,,,0.00,241,WeatherCatV1.23B16,2013-11-25 16:13:00,
2013-11-25 11:14:00,23.1,2.4,29.79,North,5,0.0,4.0,40,0.00,,,0.00,241,WeatherCatV1.23B16,2013-11-25 16:14:00,
2013-11-25 11:16:00,23.2,2.5,29.79,North,0,3.0,5.0,40,0.00,,,0.00,77,WeatherCatV1.23B16,2013-11-25 16:16:00,
2013-11-25 11:17:00,23.2,2.5,29.79,NNE,14,2.0,5.0,40,0.00,,,0.00,130,WeatherCatV1.23B16,2013-11-25 16:17:00,
2013-11-25 11:19:00,23.3,3.1,29.79,NNE,13,0.0,3.0,41,0.00,,,0.00,202,WeatherCatV1.23B16,2013-11-25 16:19:00,
2013-11-25 11:20:00,23.4,2.7,29.79,NNE,13,0.0,0.0,40,0.00,,,0.00,255,WeatherCatV1.23B16,2013-11-25 16:20:00,
2013-11-25 11:21:00,23.4,2.7,29.79,NNE,13,0.0,0.0,40,0.00,,,0.00,258,WeatherCatV1.23B16,2013-11-25 16:21:00,
2013-11-25 11:22:00,23.5,3.3,29.79,North,0,0.0,0.0,41,0.00,,,0.00,265,WeatherCatV1.23B16,2013-11-25 16:22:00,
2013-11-25 11:24:00,23.6,2.9,29.80,North,0,0.0,0.0,40,0.00,,,0.00,193,WeatherCatV1.23B16,2013-11-25 16:24:00,
2013-11-25 11:25:00,23.7,3.0,29.79,NE,49,1.0,1.0,40,0.00,,,0.00,162,WeatherCatV1.23B16,2013-11-25 16:25:00,
2013-11-25 11:26:00,23.8,1.9,29.79,ENE,58,0.0,1.0,38,0.00,,,0.00,135,WeatherCatV1.23B16,2013-11-25 16:26:00,
2013-11-25 11:27:00,23.8,1.9,29.79,ENE,58,0.0,1.0,38,0.00,,,0.00,135,WeatherCatV1.23B16,2013-11-25 16:27:00,
2013-11-25 11:28:00,23.8,1.9,29.79,ENE,58,0.0,0.0,38,0.00,,,0.00,135,WeatherCatV1.23B16,2013-11-25 16:28:00,
2013-11-25 11:29:00,24.0,3.8,29.79,ENE,58,0.0,0.0,41,0.00,,,0.00,148,WeatherCatV1.23B16,2013-11-25 16:29:00,
2013-11-25 11:30:00,24.0,3.8,29.79,ENE,58,0.0,0.0,41,0.00,,,0.00,185,WeatherCatV1.23B16,2013-11-25 16:30:00,
2013-11-25 11:32:00,24.1,3.3,29.79,ENE,58,0.0,1.0,40,0.00,,,0.00,223,WeatherCatV1.23B16,2013-11-25 16:32:00,
2013-11-25 11:33:00,24.2,3.4,29.79,ENE,58,0.0,0.0,40,0.00,,,0.00,237,WeatherCatV1.23B16,2013-11-25 16:33:00,
2013-11-25 11:35:00,24.4,3.6,29.79,ENE,58,0.0,1.0,40,0.00,,,0.00,214,WeatherCatV1.23B16,2013-11-25 16:35:00,
2013-11-25 11:37:00,24.5,4.2,29.79,ENE,58,0.0,1.0,41,0.00,,,0.00,272,WeatherCatV1.23B16,2013-11-25 16:37:00,
2013-11-25 11:38:00,24.5,3.7,29.79,NNE,22,2.0,2.0,40,0.00,,,0.00,287,WeatherCatV1.23B16,2013-11-25 16:38:00,
2013-11-25 11:40:00,24.7,3.8,29.79,North,0,2.0,2.0,40,0.00,,,0.00,267,WeatherCatV1.23B16,2013-11-25 16:40:00,
2013-11-25 11:41:00,24.7,3.8,29.79,North,0,0.0,2.0,40,0.00,,,0.00,267,WeatherCatV1.23B16,2013-11-25 16:41:00,
2013-11-25 11:42:00,24.8,3.9,29.79,NNE,22,2.0,3.0,40,0.00,,,0.00,271,WeatherCatV1.23B16,2013-11-25 16:42:00,
2013-11-25 11:43:00,24.8,3.9,29.79,NNE,16,3.0,3.0,40,0.00,,,0.00,269,WeatherCatV1.23B16,2013-11-25 16:43:00,
2013-11-25 11:45:00,24.9,2.9,29.79,NNE,16,0.0,1.0,38,0.00,,,0.00,243,WeatherCatV1.23B16,2013-11-25 16:45:00,
2013-11-25 11:46:00,25.0,2.4,29.79,NNE,16,0.0,1.0,37,0.00,,,0.00,243,WeatherCatV1.23B16,2013-11-25 16:46:00,
2013-11-25 11:47:00,25.0,3.6,29.79,NNE,16,0.0,1.0,39,0.00,,,0.00,244,WeatherCatV1.23B16,2013-11-25 16:47:00,
2013-11-25 11:48:00,25.0,3.0,29.79,NNE,17,0.0,1.0,38,0.00,,,0.00,258,WeatherCatV1.23B16,2013-11-25 16:48:00,
2013-11-25 11:49:00,25.1,3.1,29.79,NNE,17,0.0,1.0,38,0.00,,,0.00,258,WeatherCatV1.23B16,2013-11-25 16:49:00,
2013-11-25 11:50:00,25.1,3.1,29.79,NNE,17,0.0,0.0,38,0.00,,,0.00,274,WeatherCatV1.23B16,2013-11-25 16:50:00,
2013-11-25 11:51:00,25.1,2.5,29.79,NNE,17,0.0,0.0,37,0.00,,,0.00,274,WeatherCatV1.23B16,2013-11-25 16:51:00,
2013-11-25 11:53:00,25.2,3.2,29.79,NE,55,1.0,1.0,38,0.00,,,0.00,338,WeatherCatV1.23B16,2013-11-25 16:53:00,
2013-11-25 11:54:00,25.2,3.8,29.79,NNE,13,0.0,1.0,39,0.00,,,0.00,308,WeatherCatV1.23B16,2013-11-25 16:54:00,
2013-11-25 11:56:00,25.2,2.6,29.79,NNE,13,0.0,1.0,37,0.00,,,0.00,204,WeatherCatV1.23B16,2013-11-25 16:56:00,
2013-11-25 11:59:00,25.3,3.3,29.79,NNE,13,0.0,1.0,38,0.00,,,0.00,128,WeatherCatV1.23B16,2013-11-25 16:59:00,
2013-11-25 12:00:00,25.3,3.3,29.79,NNE,13,0.0,0.0,38,0.00,,,0.00,69,WeatherCatV1.23B16,2013-11-25 17:00:00,
2013-11-25 12:01:00,25.4,2.8,29.79,NNE,13,0.0,0.0,37,0.00,,,0.00,79,WeatherCatV1.23B16,2013-11-25 17:01:00,
2013-11-25 12:04:00,25.4,2.8,29.79,NNE,14,0.0,0.0,37,0.00,,,0.00,74,WeatherCatV1.23B16,2013-11-25 17:04:00,
2013-11-25 12:05:00,25.3,3.3,29.79,NNE,14,0.0,0.0,38,0.00,,,0.00,67,WeatherCatV1.23B16,2013-11-25 17:05:00,
2013-11-25 12:06:00,25.4,5.0,29.80,NNE,14,0.0,0.0,41,0.00,,,0.00,60,WeatherCatV1.23B16,2013-11-25 17:06:00,
2013-11-25 12:07:00,25.4,5.0,29.80,NNE,14,0.0,0.0,41,0.00,,,0.00,56,WeatherCatV1.23B16,2013-11-25 17:07:00,
2013-11-25 12:09:00,25.4,3.4,29.80,NNE,14,0.0,0.0,38,0.00,,,0.00,56,WeatherCatV1.23B16,2013-11-25 17:09:00,
2013-11-25 12:10:00,25.4,3.4,29.80,NNE,14,0.0,1.0,38,0.00,,,0.00,56,WeatherCatV1.23B16,2013-11-25 17:10:00,
2013-11-25 12:11:00,25.4,2.2,29.80,NNE,14,0.0,0.0,36,0.00,,,0.00,63,WeatherCatV1.23B16,2013-11-25 17:11:00,
2013-11-25 12:12:00,25.3,2.1,29.80,NNE,14,0.0,0.0,36,0.00,,,0.00,63,WeatherCatV1.23B16,2013-11-25 17:12:00,
2013-11-25 12:14:00,25.4,2.8,29.80,NNE,14,0.0,0.0,37,0.00,,,0.00,62,WeatherCatV1.23B16,2013-11-25 17:14:00,
2013-11-25 12:15:00,25.4,2.8,29.80,NNE,14,0.0,0.0,37,0.00,,,0.00,62,WeatherCatV1.23B16,2013-11-25 17:15:00,
2013-11-25 12:17:00,25.4,2.8,29.80,NNE,14,0.0,0.0,37,0.00,,,0.00,69,WeatherCatV1.23B16,2013-11-25 17:17:00,
2013-11-25 12:18:00,25.4,2.8,29.80,NNE,14,0.0,0.0,37,0.00,,,0.00,67,WeatherCatV1.23B16,2013-11-25 17:18:00,
2013-11-25 12:19:00,25.4,2.8,29.80,NNE,14,0.0,0.0,37,0.00,,,0.00,158,WeatherCatV1.23B16,2013-11-25 17:19:00,
2013-11-25 12:20:00,25.4,3.4,29.80,NNE,14,0.0,0.0,38,0.00,,,0.00,104,WeatherCatV1.23B16,2013-11-25 17:20:00,
2013-11-25 12:22:00,25.4,5.0,29.80,NNE,14,0.0,1.0,41,0.00,,,0.00,104,WeatherCatV1.23B16,2013-11-25 17:22:00,
2013-11-25 12:23:00,25.4,5.0,29.80,NNE,14,0.0,1.0,41,0.00,,,0.00,98,WeatherCatV1.23B16,2013-11-25 17:23:00,
2013-11-25 12:24:00,25.4,3.9,29.80,NNE,14,0.0,1.0,39,0.00,,,0.00,83,WeatherCatV1.23B16,2013-11-25 17:24:00,
2013-11-25 12:25:00,25.4,3.4,29.80,NNE,14,0.0,0.0,38,0.00,,,0.00,72,WeatherCatV1.23B16,2013-11-25 17:25:00,
2013-11-25 12:26:00,25.4,2.8,29.80,NNE,14,0.0,0.0,37,0.00,,,0.00,69,WeatherCatV1.23B16,2013-11-25 17:26:00,
2013-11-25 12:27:00,25.4,3.4,29.80,NNE,14,0.0,0.0,38,0.00,,,0.00,142,WeatherCatV1.23B16,2013-11-25 17:27:00,
2013-11-25 12:28:00,25.5,4.0,29.80,NW,325,0.0,1.0,39,0.00,,,0.00,142,WeatherCatV1.23B16,2013-11-25 17:28:00,
2013-11-25 12:29:00,25.4,3.9,29.80,NW,325,0.0,1.0,39,0.00,,,0.00,269,WeatherCatV1.23B16,2013-11-25 17:29:00,
2013-11-25 12:30:00,25.5,3.5,29.79,NW,325,0.0,1.0,38,0.00,,,0.00,260,WeatherCatV1.23B16,2013-11-25 17:30:00,
2013-11-25 12:31:00,25.5,3.5,29.79,NW,325,0.0,0.0,38,0.00,,,0.00,260,WeatherCatV1.23B16,2013-11-25 17:31:00,
2013-11-25 12:32:00,25.5,3.5,29.79,NW,325,0.0,0.0,38,0.00,,,0.00,139,WeatherCatV1.23B16,2013-11-25 17:32:00,
2013-11-25 12:33:00,25.5,4.6,29.79,NW,325,0.0,0.0,40,0.00,,,0.00,134,WeatherCatV1.23B16,2013-11-25 17:33:00,
2013-11-25 12:35:00,25.6,4.1,29.79,NW,325,0.0,0.0,39,0.00,,,0.00,120,WeatherCatV1.23B16,2013-11-25 17:35:00,
2013-11-25 12:36:00,25.6,4.1,29.80,NW,325,0.0,0.0,39,0.00,,,0.00,102,WeatherCatV1.23B16,2013-11-25 17:36:00,
2013-11-25 12:37:00,25.6,5.7,29.80,NW,325,0.0,0.0,42,0.00,,,0.00,97,WeatherCatV1.23B16,2013-11-25 17:37:00,
2013-11-25 12:39:00,25.7,5.8,29.79,SSE,167,0.0,1.0,42,0.00,,,0.00,90,WeatherCatV1.23B16,2013-11-25 17:39:00,
2013-11-25 12:40:00,25.7,4.8,29.80,SSE,166,0.0,1.0,40,0.00,,,0.00,91,WeatherCatV1.23B16,2013-11-25 17:40:00,
2013-11-25 12:41:00,25.7,4.8,29.80,SSE,166,0.0,1.0,40,0.00,,,0.00,93,WeatherCatV1.23B16,2013-11-25 17:41:00,
2013-11-25 12:42:00,25.8,4.8,29.79,SSE,166,0.0,1.0,40,0.00,,,0.00,86,WeatherCatV1.23B16,2013-11-25 17:42:00,
2013-11-25 12:44:00,25.8,4.8,29.79,SSE,164,0.0,1.0,40,0.00,,,0.00,90,WeatherCatV1.23B16,2013-11-25 17:44:00,
2013-11-25 12:45:00,25.8,4.3,29.79,SSE,164,0.0,1.0,39,0.00,,,0.00,97,WeatherCatV1.23B16,2013-11-25 17:45:00,
2013-11-25 12:46:00,25.9,3.8,29.79,SSE,164,0.0,0.0,38,0.00,,,0.00,67,WeatherCatV1.23B16,2013-11-25 17:46:00,
2013-11-25 12:47:00,25.9,4.4,29.79,SSE,164,0.0,0.0,39,0.00,,,0.00,65,WeatherCatV1.23B16,2013-11-25 17:47:00,
2013-11-25 12:48:00,25.9,4.9,29.79,SSE,164,0.0,0.0,40,0.00,,,0.00,74,WeatherCatV1.23B16,2013-11-25 17:48:00,
2013-11-25 12:49:00,25.9,4.4,29.79,SSE,164,0.0,0.0,39,0.00,,,0.00,90,WeatherCatV1.23B16,2013-11-25 17:49:00,
2013-11-25 12:50:00,26.0,5.0,29.80,SSE,164,0.0,0.0,40,0.00,,,0.00,88,WeatherCatV1.23B16,2013-11-25 17:50:00,
2013-11-25 12:51:00,26.0,5.6,29.80,SSE,164,0.0,0.0,41,0.00,,,0.00,86,WeatherCatV1.23B16,2013-11-25 17:51:00,
2013-11-25 12:52:00,26.0,5.6,29.80,SSE,164,0.0,0.0,41,0.00,,,0.00,93,WeatherCatV1.23B16,2013-11-25 17:52:00,
2013-11-25 12:53:00,26.0,5.6,29.80,SSE,164,0.0,0.0,41,0.00,,,0.00,86,WeatherCatV1.23B16,2013-11-25 17:53:00,
2013-11-25 12:55:00,26.0,4.5,29.80,SSE,159,0.0,1.0,39,0.00,,,0.00,91,WeatherCatV1.23B16,2013-11-25 17:55:00,
2013-11-25 12:56:00,26.1,5.1,29.80,SSE,159,0.0,1.0,40,0.00,,,0.00,79,WeatherCatV1.23B16,2013-11-25 17:56:00,
2013-11-25 12:57:00,26.1,4.6,29.80,SSE,159,0.0,0.0,39,0.00,,,0.00,79,WeatherCatV1.23B16,2013-11-25 17:57:00,
2013-11-25 12:58:00,26.1,4.6,29.80,SSE,159,0.0,0.0,39,0.00,,,0.00,72,WeatherCatV1.23B16,2013-11-25 17:58:00,
2013-11-25 13:00:00,26.1,4.6,29.80,SSE,159,0.0,0.0,39,0.00,,,0.00,76,WeatherCatV1.23B16,2013-11-25 18:00:00,
2013-11-25 13:02:00,26.1,5.7,29.80,SSE,159,0.0,0.0,41,0.00,,,0.00,70,WeatherCatV1.23B16,2013-11-25 18:02:00,
2013-11-25 13:03:00,26.2,6.8,29.80,SSE,159,0.0,0.0,43,0.00,,,0.00,76,WeatherCatV1.23B16,2013-11-25 18:03:00,
2013-11-25 13:06:00,26.2,5.8,29.80,SSE,159,0.0,0.0,41,0.00,,,0.00,70,WeatherCatV1.23B16,2013-11-25 18:06:00,
2013-11-25 13:07:00,26.2,5.2,29.80,SSE,159,0.0,0.0,40,0.00,,,0.00,62,WeatherCatV1.23B16,2013-11-25 18:07:00,
2013-11-25 13:08:00,26.2,4.7,29.79,SSE,159,0.0,0.0,39,0.00,,,0.00,51,WeatherCatV1.23B16,2013-11-25 18:08:00,
2013-11-25 13:09:00,26.2,4.7,29.79,SSE,159,0.0,0.0,39,0.00,,,0.00,42,WeatherCatV1.23B16,2013-11-25 18:09:00,
2013-11-25 13:11:00,26.3,5.3,29.79,SSE,159,0.0,0.0,40,0.00,,,0.00,39,WeatherCatV1.23B16,2013-11-25 18:11:00,
2013-11-25 13:12:00,26.3,5.3,29.79,SSE,159,0.0,0.0,40,0.00,,,0.00,42,WeatherCatV1.23B16,2013-11-25 18:12:00,
2013-11-25 13:13:00,26.3,4.8,29.79,SSE,159,0.0,1.0,39,0.00,,,0.00,42,WeatherCatV1.23B16,2013-11-25 18:13:00,
2013-11-25 13:14:00,26.3,4.8,29.79,SSE,159,0.0,1.0,39,0.00,,,0.00,42,WeatherCatV1.23B16,2013-11-25 18:14:00,
2013-11-25 13:16:00,26.3,4.2,29.79,SSE,159,0.0,0.0,38,0.00,,,0.00,40,WeatherCatV1.23B16,2013-11-25 18:16:00,
2013-11-25 13:17:00,26.3,5.3,29.79,SSE,159,0.0,0.0,40,0.00,,,0.00,39,WeatherCatV1.23B16,2013-11-25 18:17:00,
2013-11-25 13:19:00,26.3,4.8,29.79,SSE,159,0.0,0.0,39,0.00,,,0.00,35,WeatherCatV1.23B16,2013-11-25 18:19:00,
2013-11-25 13:20:00,26.3,4.8,29.79,SSE,159,0.0,0.0,39,0.00,,,0.00,33,WeatherCatV1.23B16,2013-11-25 18:20:00,
2013-11-25 13:21:00,26.3,4.2,29.79,SSE,159,0.0,0.0,38,0.00,,,0.00,35,WeatherCatV1.23B16,2013-11-25 18:21:00,
2013-11-25 13:22:00,26.3,4.2,29.79,SSE,159,0.0,0.0,38,0.00,,,0.00,33,WeatherCatV1.23B16,2013-11-25 18:22:00,
2013-11-25 13:24:00,26.3,3.0,29.80,SSE,159,0.0,0.0,36,0.00,,,0.00,32,WeatherCatV1.23B16,2013-11-25 18:24:00,
2013-11-25 13:25:00,26.3,3.6,29.80,SSE,159,0.0,0.0,37,0.00,,,0.00,32,WeatherCatV1.23B16,2013-11-25 18:25:00,
2013-11-25 13:26:00,26.2,3.5,29.79,SSE,159,0.0,0.0,37,0.00,,,0.00,33,WeatherCatV1.23B16,2013-11-25 18:26:00,
2013-11-25 13:27:00,26.3,3.6,29.79,SSE,159,0.0,0.0,37,0.00,,,0.00,33,WeatherCatV1.23B16,2013-11-25 18:27:00,
2013-11-25 13:29:00,26.3,4.2,29.80,SSE,159,0.0,0.0,38,0.00,,,0.00,39,WeatherCatV1.23B16,2013-11-25 18:29:00,
2013-11-25 13:30:00,26.2,4.1,29.80,SSE,159,0.0,0.0,38,0.00,,,0.00,39,WeatherCatV1.23B16,2013-11-25 18:30:00,
2013-11-25 13:32:00,26.3,4.8,29.80,SSE,159,0.0,0.0,39,0.00,,,0.00,47,WeatherCatV1.23B16,2013-11-25 18:32:00,
2013-11-25 13:33:00,26.2,4.7,29.80,SSE,159,0.0,0.0,39,0.00,,,0.00,49,WeatherCatV1.23B16,2013-11-25 18:33:00,
2013-11-25 13:34:00,26.2,3.5,29.80,SSE,159,0.0,0.0,37,0.00,,,0.00,56,WeatherCatV1.23B16,2013-11-25 18:34:00,
2013-11-25 13:35:00,26.2,3.5,29.80,SSE,159,0.0,0.0,37,0.00,,,0.00,56,WeatherCatV1.23B16,2013-11-25 18:35:00,
2013-11-25 13:37:00,26.2,4.7,29.80,SSE,159,0.0,0.0,39,0.00,,,0.00,60,WeatherCatV1.23B16,2013-11-25 18:37:00,
2013-11-25 13:38:00,26.2,5.2,29.80,SSE,159,0.0,0.0,40,0.00,,,0.00,63,WeatherCatV1.23B16,2013-11-25 18:38:00,
2013-11-25 13:40:00,26.2,4.1,29.79,SSE,159,0.0,0.0,38,0.00,,,0.00,62,WeatherCatV1.23B16,2013-11-25 18:40:00,
2013-11-25 13:42:00,26.2,4.7,29.80,SSE,159,0.0,0.0,39,0.00,,,0.00,62,WeatherCatV1.23B16,2013-11-25 18:42:00,
2013-11-25 13:43:00,26.2,4.7,29.79,SSE,159,0.0,0.0,39,0.00,,,0.00,67,WeatherCatV1.23B16,2013-11-25 18:43:00,
2013-11-25 13:45:00,26.2,5.8,29.79,SSE,159,0.0,0.0,41,0.00,,,0.00,62,WeatherCatV1.23B16,2013-11-25 18:45:00,
2013-11-25 13:47:00,26.2,5.8,29.79,SSE,159,0.0,0.0,41,0.00,,,0.00,63,WeatherCatV1.23B16,2013-11-25 18:47:00,
2013-11-25 13:48:00,26.2,5.8,29.79,SSE,159,0.0,0.0,41,0.00,,,0.00,65,WeatherCatV1.23B16,2013-11-25 18:48:00,
2013-11-25 13:50:00,26.2,5.2,29.79,SSE,159,0.0,0.0,40,0.00,,,0.00,67,WeatherCatV1.23B16,2013-11-25 18:50:00,
2013-11-25 13:52:00,26.2,5.8,29.80,SSE,159,0.0,0.0,41,0.00,,,0.00,67,WeatherCatV1.23B16,2013-11-25 18:52:00,
2013-11-25 13:53:00,26.2,4.7,29.80,SSE,159,0.0,0.0,39,0.00,,,0.00,65,WeatherCatV1.23B16,2013-11-25 18:53:00,
2013-11-25 13:55:00,26.2,4.7,29.80,SSE,159,0.0,0.0,39,0.00,,,0.00,62,WeatherCatV1.23B16,2013-11-25 18:55:00,
2013-11-25 13:57:00,26.2,4.1,29.79,SSE,159,0.0,0.0,38,0.00,,,0.00,62,WeatherCatV1.23B16,2013-11-25 18:57:00,
2013-11-25 13:58:00,26.2,5.2,29.79,SSE,159,0.0,0.0,40,0.00,,,0.00,60,WeatherCatV1.23B16,2013-11-25 18:58:00,
2013-11-25 13:59:00,26.2,5.2,29.79,SSE,159,0.0,0.0,40,0.00,,,0.00,60,WeatherCatV1.23B16,2013-11-25 18:59:00,
2013-11-25 14:00:00,26.2,4.7,29.79,SSE,159,0.0,0.0,39,0.00,,,0.00,56,WeatherCatV1.23B16,2013-11-25 19:00:00,
2013-11-25 14:02:00,26.2,3.5,29.78,SSE,159,0.0,0.0,37,0.00,,,0.00,53,WeatherCatV1.23B16,2013-11-25 19:02:00,
2013-11-25 14:03:00,26.2,3.5,29.78,SSE,159,0.0,0.0,37,0.00,,,0.00,51,WeatherCatV1.23B16,2013-11-25 19:03:00,
2013-11-25 14:04:00,26.2,3.5,29.78,SSE,159,0.0,0.0,37,0.00,,,0.00,53,WeatherCatV1.23B16,2013-11-25 19:04:00,
2013-11-25 14:05:00,26.2,3.5,29.78,SSE,159,0.0,0.0,37,0.00,,,0.00,53,WeatherCatV1.23B16,2013-11-25 19:05:00,
2013-11-25 14:08:00,26.2,3.5,29.78,SSE,159,1.0,1.0,37,0.00,,,0.00,53,WeatherCatV1.23B16,2013-11-25 19:08:00,
2013-11-25 14:09:00,26.2,2.3,29.78,SSE,159,0.0,1.0,35,0.00,,,0.00,56,WeatherCatV1.23B16,2013-11-25 19:09:00,
2013-11-25 14:10:00,26.2,2.3,29.78,SSE,159,0.0,1.0,35,0.00,,,0.00,53,WeatherCatV1.23B16,2013-11-25 19:10:00,
2013-11-25 14:13:00,26.2,2.9,29.78,SSE,159,0.0,0.0,36,0.00,,,0.00,49,WeatherCatV1.23B16,2013-11-25 19:13:00,
2013-11-25 14:14:00,26.2,4.1,29.78,SSE,159,0.0,0.0,38,0.00,,,0.00,47,WeatherCatV1.23B16,2013-11-25 19:14:00,
2013-11-25 14:15:00,26.1,4.0,29.78,SSE,159,0.0,0.0,38,0.00,,,0.00,47,WeatherCatV1.23B16,2013-11-25 19:15:00,
2013-11-25 14:16:00,26.2,4.1,29.78,SSE,159,0.0,0.0,38,0.00,,,0.00,47,WeatherCatV1.23B16,2013-11-25 19:16:00,
2013-11-25 14:18:00,26.2,4.7,29.78,SSE,159,0.0,0.0,39,0.00,,,0.00,42,WeatherCatV1.23B16,2013-11-25 19:18:00,
2013-11-25 14:19:00,26.1,4.6,29.78,SSE,159,0.0,0.0,39,0.00,,,0.00,42,WeatherCatV1.23B16,2013-11-25 19:19:00,
2013-11-25 14:20:00,26.2,4.1,29.78,SSE,159,0.0,0.0,38,0.00,,,0.00,40,WeatherCatV1.23B16,2013-11-25 19:20:00,
2013-11-25 14:21:00,26.2,4.1,29.78,SSE,159,0.0,0.0,38,0.00,,,0.00,40,WeatherCatV1.23B16,2013-11-25 19:21:00,
2013-11-25 14:24:00,26.2,3.5,29.78,SSE,159,0.0,0.0,37,0.00,,,0.00,37,WeatherCatV1.23B16,2013-11-25 19:24:00,
2013-11-25 14:25:00,26.2,4.1,29.78,SSE,159,0.0,0.0,38,0.00,,,0.00,37,WeatherCatV1.23B16,2013-11-25 19:25:00,
2013-11-25 14:26:00,26.2,3.5,29.78,SSE,159,0.0,1.0,37,0.00,,,0.00,35,WeatherCatV1.23B16,2013-11-25 19:26:00,
2013-11-25 14:29:00,26.1,2.8,29.79,NE,35,0.0,1.0,36,0.00,,,0.00,33,WeatherCatV1.23B16,2013-11-25 19:29:00,
2013-11-25 14:30:00,26.2,3.5,29.79,NE,35,0.0,1.0,37,0.00,,,0.00,33,WeatherCatV1.23B16,2013-11-25 19:30:00,
2013-11-25 14:32:00,26.2,2.9,29.78,NE,35,0.0,0.0,36,0.00,,,0.00,28,WeatherCatV1.23B16,2013-11-25 19:32:00,
2013-11-25 14:34:00,26.1,2.8,29.78,NE,35,0.0,0.0,36,0.00,,,0.00,28,WeatherCatV1.23B16,2013-11-25 19:34:00,
2013-11-25 14:35:00,26.1,2.8,29.78,NE,35,0.0,0.0,36,0.00,,,0.00,28,WeatherCatV1.23B16,2013-11-25 19:35:00,
2013-11-25 14:36:00,26.2,3.5,29.78,NE,35,0.0,0.0,37,0.00,,,0.00,28,WeatherCatV1.23B16,2013-11-25 19:36:00,
2013-11-25 14:37:00,26.1,3.4,29.78,NE,35,0.0,0.0,37,0.00,,,0.00,26,WeatherCatV1.23B16,2013-11-25 19:37:00,
2013-11-25 14:39:00,26.2,3.5,29.78,NE,35,0.0,0.0,37,0.00,,,0.00,23,WeatherCatV1.23B16,2013-11-25 19:39:00,
2013-11-25 14:40:00,26.2,3.5,29.78,NE,35,0.0,0.0,37,0.00,,,0.00,23,WeatherCatV1.23B16,2013-11-25 19:40:00,
2013-11-25 14:41:00,26.1,3.4,29.78,NE,35,0.0,0.0,37,0.00,,,0.00,23,WeatherCatV1.23B16,2013-11-25 19:41:00,
2013-11-25 14:42:00,26.1,4.0,29.78,NE,35,0.0,0.0,38,0.00,,,0.00,23,WeatherCatV1.23B16,2013-11-25 19:42:00,
2013-11-25 14:45:00,26.1,4.6,29.78,NE,35,0.0,0.0,39,0.00,,,0.00,26,WeatherCatV1.23B16,2013-11-25 19:45:00,
2013-11-25 14:46:00,26.1,3.4,29.78,NE,35,0.0,0.0,37,0.00,,,0.00,28,WeatherCatV1.23B16,2013-11-25 19:46:00,
2013-11-25 14:47:00,26.1,3.4,29.78,NE,35,0.0,0.0,37,0.00,,,0.00,28,WeatherCatV1.23B16,2013-11-25 19:47:00,
2013-11-25 14:50:00,26.1,2.2,29.78,NE,35,0.0,0.0,35,0.00,,,0.00,26,WeatherCatV1.23B16,2013-11-25 19:50:00,
2013-11-25 14:51:00,26.1,2.2,29.78,NE,35,0.0,0.0,35,0.00,,,0.00,26,WeatherCatV1.23B16,2013-11-25 19:51:00,
2013-11-25 14:52:00,26.1,2.8,29.79,NE,35,0.0,0.0,36,0.00,,,0.00,25,WeatherCatV1.23B16,2013-11-25 19:52:00,
2013-11-25 14:55:00,26.1,3.4,29.80,NE,35,0.0,0.0,37,0.00,,,0.00,18,WeatherCatV1.23B16,2013-11-25 19:55:00,
2013-11-25 14:56:00,26.1,3.4,29.80,NE,35,0.0,0.0,37,0.00,,,0.00,16,WeatherCatV1.23B16,2013-11-25 19:56:00,
2013-11-25 14:57:00,26.1,2.8,29.79,NE,35,0.0,0.0,36,0.00,,,0.00,14,WeatherCatV1.23B16,2013-11-25 19:57:00,
2013-11-25 15:00:00,26.1,2.8,29.80,NE,35,0.0,0.0,36,0.00,,,0.00,14,WeatherCatV1.23B16,2013-11-25 20:00:00,
2013-11-25 15:01:00,26.1,2.8,29.80,NE,35,0.0,0.0,36,0.00,,,0.00,14,WeatherCatV1.23B16,2013-11-25 20:01:00,
2013-11-25 15:02:00,26.1,4.0,29.79,NE,35,0.0,0.0,38,0.00,,,0.00,14,WeatherCatV1.23B16,2013-11-25 20:02:00,
2013-11-25 15:03:00,26.1,2.8,29.79,NE,35,0.0,0.0,36,0.00,,,0.00,14,WeatherCatV1.23B16,2013-11-25 20:03:00,
2013-11-25 15:06:00,26.1,4.0,29.79,NE,35,0.0,0.0,38,0.00,,,0.00,14,WeatherCatV1.23B16,2013-11-25 20:06:00,
2013-11-25 15:07:00,26.1,4.0,29.79,NE,35,0.0,0.0,38,0.00,,,0.00,16,WeatherCatV1.23B16,2013-11-25 20:07:00,
2013-11-25 15:09:00,26.1,2.8,29.79,NE,35,0.0,0.0,36,0.00,,,0.00,16,WeatherCatV1.23B16,2013-11-25 20:09:00,
2013-11-25 15:11:00,26.1,2.8,29.78,NE,35,0.0,0.0,36,0.00,,,0.00,18,WeatherCatV1.23B16,2013-11-25 20:11:00,
2013-11-25 15:13:00,26.1,2.8,29.79,NE,35,0.0,0.0,36,0.00,,,0.00,18,WeatherCatV1.23B16,2013-11-25 20:13:00,
2013-11-25 15:15:00,26.1,4.0,29.79,NE,35,0.0,0.0,38,0.00,,,0.00,16,WeatherCatV1.23B16,2013-11-25 20:15:00,
2013-11-25 15:16:00,26.1,4.6,29.79,NE,35,0.0,0.0,39,0.00,,,0.00,16,WeatherCatV1.23B16,2013-11-25 20:16:00,
2013-11-25 15:17:00,26.1,4.6,29.79,NE,35,0.0,0.0,39,0.00,,,0.00,16,WeatherCatV1.23B16,2013-11-25 20:17:00,
2013-11-25 15:18:00,26.1,4.6,29.79,NE,35,0.0,0.0,39,0.00,,,0.00,16,WeatherCatV1.23B16,2013-11-25 20:18:00,
2013-11-25 15:20:00,26.1,5.1,29.79,NE,35,0.0,0.0,40,0.00,,,0.00,16,WeatherCatV1.23B16,2013-11-25 20:20:00,
2013-11-25 15:21:00,26.1,5.1,29.79,NE,35,0.0,0.0,40,0.00,,,0.00,16,WeatherCatV1.23B16,2013-11-25 20:21:00,
2013-11-25 15:22:00,26.1,5.7,29.79,NE,35,0.0,0.0,41,0.00,,,0.00,19,WeatherCatV1.23B16,2013-11-25 20:22:00,
2013-11-25 15:23:00,26.1,6.2,29.79,NE,35,0.0,0.0,42,0.00,,,0.00,21,WeatherCatV1.23B16,2013-11-25 20:23:00,
2013-11-25 15:25:00,26.1,6.2,29.79,NE,35,0.0,0.0,42,0.00,,,0.00,23,WeatherCatV1.23B16,2013-11-25 20:25:00,
2013-11-25 15:26:00,26.2,6.3,29.79,NE,35,0.0,0.0,42,0.00,,,0.00,23,WeatherCatV1.23B16,2013-11-25 20:26:00,
2013-11-25 15:28:00,26.1,5.7,29.78,NE,35,0.0,0.0,41,0.00,,,0.00,23,WeatherCatV1.23B16,2013-11-25 20:28:00,
2013-11-25 15:29:00,26.2,5.8,29.78,NE,35,0.0,0.0,41,0.00,,,0.00,23,WeatherCatV1.23B16,2013-11-25 20:29:00,
2013-11-25 15:30:00,26.2,6.3,29.79,NE,35,0.0,0.0,42,0.00,,,0.00,21,WeatherCatV1.23B16,2013-11-25 20:30:00,
2013-11-25 15:31:00,26.2,6.3,29.79,NE,35,0.0,0.0,42,0.00,,,0.00,21,WeatherCatV1.23B16,2013-11-25 20:31:00,
2013-11-25 15:34:00,26.2,6.3,29.78,NE,35,0.0,0.0,42,0.00,,,0.00,18,WeatherCatV1.23B16,2013-11-25 20:34:00,
2013-11-25 15:35:00,26.2,6.8,29.78,NE,35,0.0,0.0,43,0.00,,,0.00,18,WeatherCatV1.23B16,2013-11-25 20:35:00,
2013-11-25 15:36:00,26.2,7.8,29.78,NE,35,0.0,0.0,45,0.00,,,0.00,18,WeatherCatV1.23B16,2013-11-25 20:36:00,
2013-11-25 15:37:00,26.2,8.8,29.78,NE,35,0.0,0.0,47,0.00,,,0.00,18,WeatherCatV1.23B16,2013-11-25 20:37:00,
2013-11-25 15:39:00,26.2,8.8,29.78,NE,35,0.0,0.0,47,0.00,,,0.00,18,WeatherCatV1.23B16,2013-11-25 20:39:00,
2013-11-25 15:40:00,26.2,7.8,29.78,NE,35,0.0,0.0,45,0.00,,,0.00,18,WeatherCatV1.23B16,2013-11-25 20:40:00,
2013-11-25 15:41:00,26.2,7.8,29.78,NE,35,0.0,0.0,45,0.00,,,0.00,14,WeatherCatV1.23B16,2013-11-25 20:41:00,
2013-11-25 15:43:00,26.2,7.8,29.78,NE,35,0.0,0.0,45,0.00,,,0.00,12,WeatherCatV1.23B16,2013-11-25 20:43:00,
2013-11-25 15:44:00,26.2,7.8,29.78,NE,35,0.0,0.0,45,0.00,,,0.00,11,WeatherCatV1.23B16,2013-11-25 20:44:00,
2013-11-25 15:45:00,26.2,8.3,29.78,NE,35,0.0,0.0,46,0.00,,,0.00,9,WeatherCatV1.23B16,2013-11-25 20:45:00,
2013-11-25 15:46:00,26.2,8.8,29.78,NE,35,0.0,0.0,47,0.00,,,0.00,9,WeatherCatV1.23B16,2013-11-25 20:46:00,
2013-11-25 15:47:00,26.2,8.8,29.78,NE,35,0.0,0.0,47,0.00,,,0.00,9,WeatherCatV1.23B16,2013-11-25 20:47:00,
2013-11-25 15:48:00,26.2,8.3,29.78,NE,35,0.0,0.0,46,0.00,,,0.00,7,WeatherCatV1.23B16,2013-11-25 20:48:00,
2013-11-25 15:50:00,26.2,8.3,29.78,NE,35,0.0,0.0,46,0.00,,,0.00,7,WeatherCatV1.23B16,2013-11-25 20:50:00,
2013-11-25 15:51:00,26.2,8.3,29.78,NE,35,0.0,0.0,46,0.00,,,0.00,7,WeatherCatV1.23B16,2013-11-25 20:51:00,
2013-11-25 15:52:00,26.2,8.3,29.78,NE,35,0.0,0.0,46,0.00,,,0.00,5,WeatherCatV1.23B16,2013-11-25 20:52:00,
2013-11-25 15:53:00,26.2,8.3,29.78,NE,35,0.0,0.0,46,0.00,,,0.00,5,WeatherCatV1.23B16,2013-11-25 20:53:00,
2013-11-25 15:55:00,26.2,8.3,29.78,NE,35,0.0,0.0,46,0.00,,,0.00,5,WeatherCatV1.23B16,2013-11-25 20:55:00,
2013-11-25 15:56:00,26.2,8.3,29.78,NE,35,0.0,0.0,46,0.00,,,0.00,5,WeatherCatV1.23B16,2013-11-25 20:56:00,
2013-11-25 15:57:00,26.2,8.3,29.78,NE,35,0.0,0.0,46,0.00,,,0.00,5,WeatherCatV1.23B16,2013-11-25 20:57:00,
2013-11-25 15:59:00,26.2,7.8,29.77,NE,35,0.0,0.0,45,0.00,,,0.00,5,WeatherCatV1.23B16,2013-11-25 20:59:00,
2013-11-25 16:00:00,26.2,7.8,29.78,NE,35,0.0,0.0,45,0.00,,,0.00,5,WeatherCatV1.23B16,2013-11-25 21:00:00,
2013-11-25 16:01:00,26.1,7.7,29.78,NE,35,0.0,0.0,45,0.00,,,0.00,5,WeatherCatV1.23B16,2013-11-25 21:01:00,
2013-11-25 16:02:00,26.1,7.7,29.77,NE,35,0.0,0.0,45,0.00,,,0.00,0,WeatherCatV1.23B16,2013-11-25 21:02:00,
2013-11-25 16:03:00,26.1,7.7,29.77,NE,35,0.0,0.0,45,0.00,,,0.00,5,WeatherCatV1.23B16,2013-11-25 21:03:00,
2013-11-25 16:04:00,26.1,7.7,29.77,NE,35,0.0,0.0,45,0.00,,,0.00,5,WeatherCatV1.23B16,2013-11-25 21:04:00,
2013-11-25 16:05:00,26.1,7.2,29.77,NE,35,0.0,0.0,44,0.00,,,0.00,5,WeatherCatV1.23B16,2013-11-25 21:05:00,
2013-11-25 16:06:00,26.1,6.7,29.78,NE,35,0.0,0.0,43,0.00,,,0.00,5,WeatherCatV1.23B16,2013-11-25 21:06:00,
2013-11-25 16:07:00,26.0,6.1,29.78,NE,35,0.0,0.0,42,0.00,,,0.00,5,WeatherCatV1.23B16,2013-11-25 21:07:00,
2013-11-25 16:08:00,26.1,6.2,29.78,NE,35,0.0,0.0,42,0.00,,,0.00,5,WeatherCatV1.23B16,2013-11-25 21:08:00,
2013-11-25 16:10:00,26.0,6.6,29.78,NE,35,0.0,0.0,43,0.00,,,0.00,0,WeatherCatV1.23B16,2013-11-25 21:10:00,
2013-11-25 16:11:00,25.9,7.0,29.78,NE,35,0.0,0.0,44,0.00,,,0.00,0,WeatherCatV1.23B16,2013-11-25 21:11:00,
2013-11-25 16:13:00,25.9,7.5,29.78,NE,35,0.0,0.0,45,0.00,,,0.00,0,WeatherCatV1.23B16,2013-11-25 21:13:00,
2013-11-25 16:15:00,25.8,8.4,29.78,NE,35,0.0,0.0,47,0.00,,,0.00,0,WeatherCatV1.23B16,2013-11-25 21:15:00,
2013-11-25 16:16:00,25.8,8.4,29.78,NE,35,0.0,0.0,47,0.00,,,0.00,0,WeatherCatV1.23B16,2013-11-25 21:16:00,
2013-11-25 16:17:00,25.8,8.4,29.78,NE,35,0.0,0.0,47,0.00,,,0.00,0,WeatherCatV1.23B16,2013-11-25 21:17:00,
2013-11-25 16:18:00,25.8,8.9,29.79,NE,35,0.0,0.0,48,0.00,,,0.00,0,WeatherCatV1.23B16,2013-11-25 21:18:00,
2013-11-25 16:20:00,25.7,9.7,29.78,NE,35,0.0,0.0,50,0.00,,,0.00,0,WeatherCatV1.23B16,2013-11-25 21:20:00,
2013-11-25 16:21:00,25.7,9.2,29.79,NE,35,0.0,0.0,49,0.00,,,0.00,0,WeatherCatV1.23B16,2013-11-25 21:21:00,
2013-11-25 16:22:00,25.6,9.6,29.79,NE,35,0.0,0.0,50,0.00,,,0.00,0,WeatherCatV1.23B16,2013-11-25 21:22:00,
2013-11-25 16:23:00,25.6,9.6,29.79,NE,35,0.0,0.0,50,0.00,,,0.00,0,WeatherCatV1.23B16,2013-11-25 21:23:00,
2013-11-25 16:25:00,25.5,9.0,29.79,NE,35,0.0,0.0,49,0.00,,,0.00,0,WeatherCatV1.23B16,2013-11-25 21:25:00,
2013-11-25 16:26:00,25.4,8.9,29.79,NE,35,0.0,0.0,49,0.00,,,0.00,0,WeatherCatV1.23B16,2013-11-25 21:26:00,
2013-11-25 16:27:00,25.4,8.9,29.79,NE,35,0.0,0.0,49,0.00,,,0.00,0,WeatherCatV1.23B16,2013-11-25 21:27:00,
2013-11-25 16:28:00,25.4,8.9,29.79,NE,35,0.0,0.0,49,0.00,,,0.00,0,WeatherCatV1.23B16,2013-11-25 21:28:00,
2013-11-25 16:30:00,25.2,7.4,29.80,NE,34,0.0,0.0,46,0.00,,,0.00,0,WeatherCatV1.23B16,2013-11-25 21:30:00,
2013-11-25 16:31:00,25.2,7.4,29.80,NE,34,0.0,0.0,46,0.00,,,0.00,0,WeatherCatV1.23B16,2013-11-25 21:31:00,
2013-11-25 16:32:00,25.0,7.7,29.79,NE,34,0.0,0.0,47,0.00,,,0.00,0,WeatherCatV1.23B16,2013-11-25 21:32:00,
2013-11-25 16:33:00,25.0,8.1,29.79,NE,34,0.0,0.0,48,0.00,,,0.00,0,WeatherCatV1.23B16,2013-11-25 21:33:00,
2013-11-25 16:35:00,24.9,7.6,29.79,NE,34,0.0,0.0,47,0.00,,,0.00,0,WeatherCatV1.23B16,2013-11-25 21:35:00,
2013-11-25 16:36:00,24.8,7.9,29.79,NE,34,0.0,0.0,48,0.00,,,0.00,0,WeatherCatV1.23B16,2013-11-25 21:36:00,
2013-11-25 16:37:00,24.8,8.4,29.79,NE,34,0.0,0.0,49,0.00,,,0.00,0,WeatherCatV1.23B16,2013-11-25 21:37:00,
2013-11-25 16:38:00,24.8,7.9,29.79,NE,34,0.0,0.0,48,0.00,,,0.00,0,WeatherCatV1.23B16,2013-11-25 21:38:00,
2013-11-25 16:39:00,24.8,7.9,29.79,NE,34,0.0,0.0,48,0.00,,,0.00,0,WeatherCatV1.23B16,2013-11-25 21:39:00,
2013-11-25 16:40:00,24.7,8.7,29.79,NE,34,0.0,0.0,50,0.00,,,0.00,0,WeatherCatV1.23B16,2013-11-25 21:40:00,
2013-11-25 16:42:00,24.6,9.1,29.79,NE,34,0.0,0.0,51,0.00,,,0.00,0,WeatherCatV1.23B16,2013-11-25 21:42:00,
2013-11-25 16:43:00,24.5,9.9,29.79,NE,34,0.0,0.0,53,0.00,,,0.00,0,WeatherCatV1.23B16,2013-11-25 21:43:00,
2013-11-25 16:44:00,24.5,9.9,29.79,NE,34,0.0,0.0,53,0.00,,,0.00,0,WeatherCatV1.23B16,2013-11-25 21:44:00,
2013-11-25 16:46:00,24.4,9.8,29.78,NE,34,0.0,0.0,53,0.00,,,0.00,0,WeatherCatV1.23B16,2013-11-25 21:46:00,
2013-11-25 16:47:00,24.4,8.9,29.79,NE,34,0.0,0.0,51,0.00,,,0.00,0,WeatherCatV1.23B16,2013-11-25 21:47:00,
2013-11-25 16:48:00,24.3,8.8,29.79,NE,34,0.0,0.0,51,0.00,,,0.00,0,WeatherCatV1.23B16,2013-11-25 21:48:00,
2013-11-25 16:49:00,24.3,8.8,29.79,NE,34,0.0,0.0,51,0.00,,,0.00,0,WeatherCatV1.23B16,2013-11-25 21:49:00,
2013-11-25 16:51:00,24.2,8.7,29.79,NE,34,0.0,0.0,51,0.00,,,0.00,0,WeatherCatV1.23B16,2013-11-25 21:51:00,
2013-11-25 16:52:00,24.2,9.6,29.79,NE,34,0.0,0.0,53,0.00,,,0.00,0,WeatherCatV1.23B16,2013-11-25 21:52:00,
2013-11-25 16:53:00,24.1,9.9,29.79,NE,34,0.0,0.0,54,0.00,,,0.00,0,WeatherCatV1.23B16,2013-11-25 21:53:00,
2013-11-25 16:54:00,24.1,9.9,29.78,NE,34,0.0,0.0,54,0.00,,,0.00,0,WeatherCatV1.23B16,2013-11-25 21:54:00,
2013-11-25 16:56:00,23.9,9.7,29.79,NE,34,0.0,0.0,54,0.00,,,0.00,0,WeatherCatV1.23B16,2013-11-25 21:56:00,
2013-11-25 16:58:00,23.9,9.3,29.79,NE,34,0.0,0.0,53,0.00,,,0.00,0,WeatherCatV1.23B16,2013-11-25 21:58:00,
2013-11-25 16:59:00,23.8,9.2,29.79,NE,34,0.0,1.0,53,0.00,,,0.00,0,WeatherCatV1.23B16,2013-11-25 21:59:00,
2013-11-25 17:01:00,23.7,8.7,29.79,NE,34,0.0,0.0,52,0.00,,,0.00,0,WeatherCatV1.23B16,2013-11-25 22:01:00,
2013-11-25 17:03:00,23.6,7.7,29.79,NE,34,0.0,0.0,50,0.00,,,0.00,0,WeatherCatV1.23B16,2013-11-25 22:03:00,
2013-11-25 17:04:00,23.6,7.7,29.79,NE,34,0.0,0.0,50,0.00,,,0.00,0,WeatherCatV1.23B16,2013-11-25 22:04:00,
2013-11-25 17:05:00,23.5,7.6,29.79,NE,34,0.0,0.0,50,0.00,,,0.00,0,WeatherCatV1.23B16,2013-11-25 22:05:00,
2013-11-25 17:07:00,23.4,8.0,29.80,NE,34,0.0,0.0,51,0.00,,,0.00,0,WeatherCatV1.23B16,2013-11-25 22:07:00,
2013-11-25 17:08:00,23.4,8.4,29.80,NE,34,0.0,0.0,52,0.00,,,0.00,0,WeatherCatV1.23B16,2013-11-25 22:08:00,
2013-11-25 17:09:00,23.4,8.4,29.80,NE,34,0.0,0.0,52,0.00,,,0.00,0,WeatherCatV1.23B16,2013-11-25 22:09:00,
2013-11-25 17:10:00,23.4,8.4,29.80,NE,34,0.0,0.0,52,0.00,,,0.00,0,WeatherCatV1.23B16,2013-11-25 22:10:00,
2013-11-25 17:12:00,23.3,8.3,29.80,NE,34,0.0,1.0,52,0.00,,,0.00,0,WeatherCatV1.23B16,2013-11-25 22:12:00,
2013-11-25 17:14:00,23.2,7.8,29.80,NE,34,0.0,0.0,51,0.00,,,0.00,0,WeatherCatV1.23B16,2013-11-25 22:14:00,
2013-11-25 17:15:00,23.2,7.8,29.80,NE,34,0.0,0.0,51,0.00,,,0.00,0,WeatherCatV1.23B16,2013-11-25 22:15:00,
2013-11-25 17:16:00,23.1,7.7,29.80,NE,34,0.0,0.0,51,0.00,,,0.00,0,WeatherCatV1.23B16,2013-11-25 22:16:00,
2013-11-25 17:17:00,23.1,8.1,29.80,NE,34,0.0,0.0,52,0.00,,,0.00,0,WeatherCatV1.23B16,2013-11-25 22:17:00,
2013-11-25 17:19:00,23.1,9.0,29.80,NE,34,0.0,0.0,54,0.00,,,0.00,0,WeatherCatV1.23B16,2013-11-25 22:19:00,
2013-11-25 17:20:00,23.0,9.3,29.80,NE,34,0.0,0.0,55,0.00,,,0.00,0,WeatherCatV1.23B16,2013-11-25 22:20:00,
2013-11-25 17:21:00,23.0,9.3,29.80,NE,34,0.0,0.0,55,0.00,,,0.00,0,WeatherCatV1.23B16,2013-11-25 22:21:00,
2013-11-25 17:22:00,22.9,8.8,29.80,NE,34,0.0,0.0,54,0.00,,,0.00,0,WeatherCatV1.23B16,2013-11-25 22:22:00,
2013-11-25 17:24:00,22.9,8.8,29.79,NE,34,0.0,0.0,54,0.00,,,0.00,0,WeatherCatV1.23B16,2013-11-25 22:24:00,
2013-11-25 17:25:00,22.8,8.7,29.79,NE,34,0.0,0.0,54,0.00,,,0.00,0,WeatherCatV1.23B16,2013-11-25 22:25:00,
2013-11-25 17:26:00,22.8,8.7,29.79,NE,34,0.0,0.0,54,0.00,,,0.00,0,WeatherCatV1.23B16,2013-11-25 22:26:00,
2013-11-25 17:28:00,22.7,8.6,29.79,NE,34,0.0,0.0,54,0.00,,,0.00,0,WeatherCatV1.23B16,2013-11-25 22:28:00,
2013-11-25 17:29:00,22.7,8.6,29.79,NE,34,0.0,0.0,54,0.00,,,0.00,0,WeatherCatV1.23B16,2013-11-25 22:29:00,
2013-11-25 17:30:00,22.6,8.5,29.79,NE,34,0.0,1.0,54,0.00,,,0.00,0,WeatherCatV1.23B16,2013-11-25 22:30:00,
2013-11-25 17:31:00,22.6,8.5,29.79,NW,325,0.0,1.0,54,0.00,,,0.00,0,WeatherCatV1.23B16,2013-11-25 22:31:00,
2013-11-25 17:33:00,22.5,8.4,29.79,NW,317,0.0,0.0,54,0.00,,,0.00,0,WeatherCatV1.23B16,2013-11-25 22:33:00,
2013-11-25 17:34:00,22.5,9.2,29.79,NW,317,0.0,0.0,56,0.00,,,0.00,0,WeatherCatV1.23B16,2013-11-25 22:34:00,
2013-11-25 17:35:00,22.5,9.2,29.79,WNW,296,0.0,1.0,56,0.00,,,0.00,0,WeatherCatV1.23B16,2013-11-25 22:35:00,
2013-11-25 17:36:00,22.4,8.7,29.79,WNW,296,0.0,1.0,55,0.00,,,0.00,0,WeatherCatV1.23B16,2013-11-25 22:36:00,
2013-11-25 17:37:00,22.4,8.3,29.79,WNW,296,0.0,0.0,54,0.00,,,0.00,0,WeatherCatV1.23B16,2013-11-25 22:37:00,
2013-11-25 17:38:00,22.3,8.2,29.79,WNW,296,0.0,0.0,54,0.00,,,0.00,0,WeatherCatV1.23B16,2013-11-25 22:38:00,
2013-11-25 17:39:00,22.3,8.2,29.79,WNW,296,0.0,0.0,54,0.00,,,0.00,0,WeatherCatV1.23B16,2013-11-25 22:39:00,
2013-11-25 17:40:00,22.2,8.5,29.79,WNW,296,0.0,0.0,55,0.00,,,0.00,0,WeatherCatV1.23B16,2013-11-25 22:40:00,
2013-11-25 17:41:00,22.2,8.1,29.79,WNW,296,0.0,0.0,54,0.00,,,0.00,0,WeatherCatV1.23B16,2013-11-25 22:41:00,
2013-11-25 17:43:00,22.1,8.4,29.79,WNW,296,0.0,0.0,55,0.00,,,0.00,0,WeatherCatV1.23B16,2013-11-25 22:43:00,
2013-11-25 17:44:00,22.1,8.4,29.80,WNW,296,0.0,0.0,55,0.00,,,0.00,0,WeatherCatV1.23B16,2013-11-25 22:44:00,
2013-11-25 17:45:00,22.1,8.4,29.79,WNW,296,0.0,0.0,55,0.00,,,0.00,0,WeatherCatV1.23B16,2013-11-25 22:45:00,
2013-11-25 17:46:00,22.0,8.3,29.79,WNW,296,0.0,0.0,55,0.00,,,0.00,0,WeatherCatV1.23B16,2013-11-25 22:46:00,
2013-11-25 17:48:00,22.0,8.3,29.80,WNW,296,0.0,0.0,55,0.00,,,0.00,0,WeatherCatV1.23B16,2013-11-25 22:48:00,
2013-11-25 17:50:00,21.9,9.0,29.80,WNW,296,0.0,0.0,57,0.00,,,0.00,0,WeatherCatV1.23B16,2013-11-25 22:50:00,
2013-11-25 17:51:00,21.9,9.4,29.80,WNW,296,0.0,0.0,58,0.00,,,0.00,0,WeatherCatV1.23B16,2013-11-25 22:51:00,
2013-11-25 17:52:00,21.8,9.3,29.80,WNW,296,0.0,0.0,58,0.00,,,0.00,0,WeatherCatV1.23B16,2013-11-25 22:52:00,
2013-11-25 17:54:00,21.8,8.9,29.80,WNW,296,0.0,0.0,57,0.00,,,0.00,0,WeatherCatV1.23B16,2013-11-25 22:54:00,
2013-11-25 17:55:00,21.7,9.2,29.80,WNW,296,0.0,0.0,58,0.00,,,0.00,0,WeatherCatV1.23B16,2013-11-25 22:55:00,
2013-11-25 17:56:00,21.7,9.2,29.80,WNW,296,0.0,0.0,58,0.00,,,0.00,0,WeatherCatV1.23B16,2013-11-25 22:56:00,
2013-11-25 17:57:00,21.7,9.2,29.80,WNW,296,0.0,0.0,58,0.00,,,0.00,0,WeatherCatV1.23B16,2013-11-25 22:57:00,
2013-11-25 17:59:00,21.6,8.8,29.80,WNW,296,0.0,0.0,57,0.00,,,0.00,0,WeatherCatV1.23B16,2013-11-25 22:59:00,
2013-11-25 18:00:00,21.5,8.3,29.80,WNW,296,0.0,1.0,56,0.00,,,0.00,0,WeatherCatV1.23B16,2013-11-25 23:00:00,
2013-11-25 18:02:00,21.5,8.7,29.80,WNW,296,0.0,0.0,57,0.00,,,0.00,0,WeatherCatV1.23B16,2013-11-25 23:02:00,
2013-11-25 18:03:00,21.5,8.7,29.80,WNW,296,0.0,0.0,57,0.00,,,0.00,0,WeatherCatV1.23B16,2013-11-25 23:03:00,
2013-11-25 18:04:00,21.4,8.6,29.80,WNW,296,0.0,0.0,57,0.00,,,0.00,0,WeatherCatV1.23B16,2013-11-25 23:04:00,
2013-11-25 18:05:00,21.4,8.9,29.79,WNW,296,0.0,0.0,58,0.00,,,0.00,0,WeatherCatV1.23B16,2013-11-25 23:05:00,
2013-11-25 18:07:00,21.3,9.2,29.79,WNW,296,0.0,0.0,59,0.00,,,0.00,0,WeatherCatV1.23B16,2013-11-25 23:07:00,
2013-11-25 18:08:00,21.3,9.2,29.79,WNW,296,0.0,0.0,59,0.00,,,0.00,0,WeatherCatV1.23B16,2013-11-25 23:08:00,
2013-11-25 18:09:00,21.3,9.6,29.78,WNW,296,0.0,0.0,60,0.00,,,0.00,0,WeatherCatV1.23B16,2013-11-25 23:09:00,
2013-11-25 18:10:00,21.3,10.0,29.78,WNW,296,0.0,0.0,61,0.00,,,0.00,0,WeatherCatV1.23B16,2013-11-25 23:10:00,
2013-11-25 18:13:00,21.2,9.1,29.80,WNW,296,0.0,1.0,59,0.00,,,0.00,0,WeatherCatV1.23B16,2013-11-25 23:13:00,
2013-11-25 18:14:00,21.1,9.0,29.80,WNW,296,0.0,1.0,59,0.00,,,0.00,0,WeatherCatV1.23B16,2013-11-25 23:14:00,
2013-11-25 18:15:00,21.1,9.4,29.81,WNW,296,0.0,0.0,60,0.00,,,0.00,0,WeatherCatV1.23B16,2013-11-25 23:15:00,
2013-11-25 18:16:00,21.1,9.4,29.81,WNW,296,0.0,0.0,60,0.00,,,0.00,0,WeatherCatV1.23B16,2013-11-25 23:16:00,
2013-11-25 18:18:00,21.0,9.3,29.80,WNW,296,0.0,0.0,60,0.00,,,0.00,0,WeatherCatV1.23B16,2013-11-25 23:18:00,
2013-11-25 18:19:00,21.0,9.7,29.80,WNW,296,0.0,0.0,61,0.00,,,0.00,0,WeatherCatV1.23B16,2013-11-25 23:19:00,
2013-11-25 18:20:00,21.0,9.3,29.80,WNW,296,0.0,0.0,60,0.00,,,0.00,0,WeatherCatV1.23B16,2013-11-25 23:20:00,
2013-11-25 18:21:00,21.0,9.7,29.80,WNW,296,0.0,0.0,61,0.00,,,0.00,0,WeatherCatV1.23B16,2013-11-25 23:21:00,
2013-11-25 18:23:00,21.0,10.1,29.81,WNW,296,0.0,0.0,62,0.00,,,0.00,0,WeatherCatV1.23B16,2013-11-25 23:23:00,
2013-11-25 18:24:00,20.9,10.0,29.81,WNW,296,0.0,0.0,62,0.00,,,0.00,0,WeatherCatV1.23B16,2013-11-25 23:24:00,
2013-11-25 18:25:00,20.9,10.3,29.81,WNW,296,0.0,0.0,63,0.00,,,0.00,0,WeatherCatV1.23B16,2013-11-25 23:25:00,
2013-11-25 18:26:00,20.9,10.3,29.80,WNW,296,0.0,0.0,63,0.00,,,0.00,0,WeatherCatV1.23B16,2013-11-25 23:26:00,
2013-11-25 18:28:00,20.9,10.7,29.80,WNW,296,0.0,0.0,64,0.00,,,0.00,0,WeatherCatV1.23B16,2013-11-25 23:28:00,
2013-11-25 18:29:00,20.9,10.7,29.80,WNW,296,0.0,0.0,64,0.00,,,0.00,0,WeatherCatV1.23B16,2013-11-25 23:29:00,
2013-11-25 18:30:00,20.9,10.7,29.81,WNW,296,0.0,0.0,64,0.00,,,0.00,0,WeatherCatV1.23B16,2013-11-25 23:30:00,
2013-11-25 18:31:00,20.9,10.7,29.81,WNW,296,0.0,0.0,64,0.00,,,0.00,0,WeatherCatV1.23B16,2013-11-25 23:31:00,
2013-11-25 18:33:00,20.9,10.3,29.80,WNW,296,0.0,0.0,63,0.00,,,0.00,0,WeatherCatV1.23B16,2013-11-25 23:33:00,
2013-11-25 18:34:00,20.9,10.3,29.80,WNW,296,0.0,0.0,63,0.00,,,0.00,0,WeatherCatV1.23B16,2013-11-25 23:34:00,
2013-11-25 18:35:00,20.9,10.7,29.80,WNW,296,0.0,0.0,64,0.00,,,0.00,0,WeatherCatV1.23B16,2013-11-25 23:35:00,
2013-11-25 18:36:00,20.9,10.7,29.80,WNW,296,0.0,0.0,64,0.00,,,0.00,0,WeatherCatV1.23B16,2013-11-25 23:36:00,
2013-11-25 18:37:00,20.9,10.3,29.80,WNW,296,0.0,0.0,63,0.00,,,0.00,0,WeatherCatV1.23B16,2013-11-25 23:37:00,
2013-11-25 18:38:00,20.9,10.3,29.79,WNW,296,0.0,0.0,63,0.00,,,0.00,0,WeatherCatV1.23B16,2013-11-25 23:38:00,
2013-11-25 18:39:00,20.9,10.3,29.79,WNW,296,0.0,0.0,63,0.00,,,0.00,0,WeatherCatV1.23B16,2013-11-25 23:39:00,
2013-11-25 18:40:00,20.9,10.3,29.79,WNW,296,0.0,0.0,63,0.00,,,0.00,0,WeatherCatV1.23B16,2013-11-25 23:40:00,
2013-11-25 18:41:00,20.9,10.3,29.79,WNW,296,0.0,0.0,63,0.00,,,0.00,0,WeatherCatV1.23B16,2013-11-25 23:41:00,
2013-11-25 18:42:00,20.9,10.7,29.79,WNW,296,0.0,0.0,64,0.00,,,0.00,0,WeatherCatV1.23B16,2013-11-25 23:42:00,
2013-11-25 18:43:00,20.9,10.3,29.79,WNW,296,0.0,0.0,63,0.00,,,0.00,0,WeatherCatV1.23B16,2013-11-25 23:43:00,
2013-11-25 18:44:00,20.9,10.3,29.80,WNW,296,0.0,0.0,63,0.00,,,0.00,0,WeatherCatV1.23B16,2013-11-25 23:44:00,
2013-11-25 18:45:00,20.9,8.5,29.80,WNW,296,0.0,0.0,58,0.00,,,0.00,0,WeatherCatV1.23B16,2013-11-25 23:45:00,
2013-11-25 18:46:00,20.9,8.5,29.80,WNW,296,0.0,0.0,58,0.00,,,0.00,0,WeatherCatV1.23B16,2013-11-25 23:46:00,
2013-11-25 18:47:00,20.9,9.6,29.80,WNW,296,0.0,0.0,61,0.00,,,0.00,0,WeatherCatV1.23B16,2013-11-25 23:47:00,
2013-11-25 18:48:00,21.0,10.1,29.80,WNW,296,0.0,0.0,62,0.00,,,0.00,0,WeatherCatV1.23B16,2013-11-25 23:48:00,
2013-11-25 18:49:00,21.0,10.1,29.80,WNW,296,0.0,0.0,62,0.00,,,0.00,0,WeatherCatV1.23B16,2013-11-25 23:49:00,
2013-11-25 18:50:00,21.0,10.1,29.80,WNW,296,0.0,0.0,62,0.00,,,0.00,0,WeatherCatV1.23B16,2013-11-25 23:50:00,
2013-11-25 18:52:00,21.1,10.5,29.79,WNW,296,0.0,0.0,63,0.00,,,0.00,0,WeatherCatV1.23B16,2013-11-25 23:52:00,
2013-11-25 18:53:00,21.0,10.4,29.79,WNW,296,0.0,0.0,63,0.00,,,0.00,0,WeatherCatV1.23B16,2013-11-25 23:53:00,
2013-11-25 18:54:00,21.1,10.5,29.79,WNW,296,0.0,0.0,63,0.00,,,0.00,0,WeatherCatV1.23B16,2013-11-25 23:54:00,
2013-11-25 18:55:00,21.1,10.9,29.79,WNW,296,0.0,0.0,64,0.00,,,0.00,0,WeatherCatV1.23B16,2013-11-25 23:55:00,
2013-11-25 18:57:00,21.1,10.9,29.79,WNW,296,0.0,0.0,64,0.00,,,0.00,0,WeatherCatV1.23B16,2013-11-25 23:57:00,
2013-11-25 18:58:00,21.1,10.9,29.79,WNW,296,0.0,0.0,64,0.00,,,0.00,0,WeatherCatV1.23B16,2013-11-25 23:58:00,
2013-11-25 18:59:00,21.1,10.9,29.79,WNW,296,0.0,0.0,64,0.00,,,0.00,0,WeatherCatV1.23B16,2013-11-25 23:59:00,
2013-11-25 19:01:00,21.1,10.9,29.79,WNW,296,0.0,0.0,64,0.00,,,0.00,0,WeatherCatV1.23B16,2013-11-26 00:01:00,
2013-11-25 19:02:00,21.2,10.9,29.79,WNW,296,0.0,0.0,64,0.00,,,0.00,0,WeatherCatV1.23B16,2013-11-26 00:02:00,
2013-11-25 19:03:00,21.2,10.9,29.78,WNW,296,0.0,0.0,64,0.00,,,0.00,0,WeatherCatV1.23B16,2013-11-26 00:03:00,
2013-11-25 19:04:00,21.2,10.9,29.78,WNW,296,0.0,0.0,64,0.00,,,0.00,0,WeatherCatV1.23B16,2013-11-26 00:04:00,
2013-11-25 19:05:00,21.2,10.9,29.78,WNW,296,0.0,0.0,64,0.00,,,0.00,0,WeatherCatV1.23B16,2013-11-26 00:05:00,
2013-11-25 19:06:00,21.2,10.9,29.78,WNW,296,0.0,0.0,64,0.00,,,0.00,0,WeatherCatV1.23B16,2013-11-26 00:06:00,
2013-11-25 19:07:00,21.2,10.2,29.78,WNW,296,0.0,0.0,62,0.00,,,0.00,0,WeatherCatV1.23B16,2013-11-26 00:07:00,
2013-11-25 19:08:00,21.2,10.2,29.78,WNW,296,0.0,0.0,62,0.00,,,0.00,0,WeatherCatV1.23B16,2013-11-26 00:08:00,
2013-11-25 19:09:00,21.2,10.2,29.78,WNW,296,0.0,0.0,62,0.00,,,0.00,0,WeatherCatV1.23B16,2013-11-26 00:09:00,
2013-11-25 19:10:00,21.2,10.2,29.78,WNW,296,0.0,0.0,62,0.00,,,0.00,0,WeatherCatV1.23B16,2013-11-26 00:10:00,
2013-11-25 19:11:00,21.3,10.0,29.78,WNW,296,0.0,0.0,61,0.00,,,0.00,0,WeatherCatV1.23B16,2013-11-26 00:11:00,
2013-11-25 19:13:00,21.3,8.9,29.79,WNW,296,0.0,0.0,58,0.00,,,0.00,0,WeatherCatV1.23B16,2013-11-26 00:13:00,
2013-11-25 19:15:00,21.3,8.9,29.79,WNW,296,0.0,0.0,58,0.00,,,0.00,0,WeatherCatV1.23B16,2013-11-26 00:15:00,
2013-11-25 19:16:00,21.3,9.6,29.79,WNW,296,0.0,0.0,60,0.00,,,0.00,0,WeatherCatV1.23B16,2013-11-26 00:16:00,
2013-11-25 19:17:00,21.3,9.6,29.79,WNW,296,0.0,0.0,60,0.00,,,0.00,0,WeatherCatV1.23B16,2013-11-26 00:17:00,
2013-11-25 19:18:00,21.3,9.6,29.79,WNW,296,0.0,0.0,60,0.00,,,0.00,0,WeatherCatV1.23B16,2013-11-26 00:18:00,
2013-11-25 19:19:00,21.3,9.6,29.79,WNW,296,0.0,0.0,60,0.00,,,0.00,0,WeatherCatV1.23B16,2013-11-26 00:19:00,
2013-11-25 19:20:00,21.4,9.7,29.80,WNW,296,0.0,0.0,60,0.00,,,0.00,0,WeatherCatV1.23B16,2013-11-26 00:20:00,
2013-11-25 19:21:00,21.4,10.1,29.80,WNW,296,0.0,0.0,61,0.00,,,0.00,0,WeatherCatV1.23B16,2013-11-26 00:21:00,
2013-11-25 19:22:00,21.4,10.1,29.80,WNW,296,0.0,0.0,61,0.00,,,0.00,0,WeatherCatV1.23B16,2013-11-26 00:22:00,
2013-11-25 19:23:00,21.4,10.4,29.79,WNW,296,0.0,0.0,62,0.00,,,0.00,0,WeatherCatV1.23B16,2013-11-26 00:23:00,
2013-11-25 19:24:00,21.4,10.4,29.79,WNW,296,0.0,0.0,62,0.00,,,0.00,0,WeatherCatV1.23B16,2013-11-26 00:24:00,
2013-11-25 19:25:00,21.4,10.4,29.79,WNW,296,0.0,0.0,62,0.00,,,0.00,0,WeatherCatV1.23B16,2013-11-26 00:25:00,
2013-11-25 19:27:00,21.5,10.2,29.78,WNW,296,0.0,0.0,61,0.00,,,0.00,0,WeatherCatV1.23B16,2013-11-26 00:27:00,
2013-11-25 19:28:00,21.5,10.2,29.78,WNW,296,0.0,0.0,61,0.00,,,0.00,0,WeatherCatV1.23B16,2013-11-26 00:28:00,
2013-11-25 19:29:00,21.5,10.5,29.78,WNW,296,0.0,0.0,62,0.00,,,0.00,0,WeatherCatV1.23B16,2013-11-26 00:29:00,
2013-11-25 19:30:00,21.5,10.5,29.79,WNW,296,0.0,0.0,62,0.00,,,0.00,0,WeatherCatV1.23B16,2013-11-26 00:30:00,
2013-11-25 19:32:00,21.5,10.2,29.79,WNW,296,0.0,0.0,61,0.00,,,0.00,0,WeatherCatV1.23B16,2013-11-26 00:32:00,
2013-11-25 19:33:00,21.5,10.2,29.79,WNW,296,0.0,0.0,61,0.00,,,0.00,0,WeatherCatV1.23B16,2013-11-26 00:33:00,
2013-11-25 19:34:00,21.6,10.3,29.79,WNW,296,0.0,0.0,61,0.00,,,0.00,0,WeatherCatV1.23B16,2013-11-26 00:34:00,
2013-11-25 19:35:00,21.6,10.3,29.79,WNW,296,0.0,0.0,61,0.00,,,0.00,0,WeatherCatV1.23B16,2013-11-26 00:35:00,
2013-11-25 19:37:00,21.6,10.6,29.78,WNW,296,0.0,0.0,62,0.00,,,0.00,0,WeatherCatV1.23B16,2013-11-26 00:37:00,
2013-11-25 19:38:00,21.6,11.0,29.79,WNW,296,0.0,0.0,63,0.00,,,0.00,0,WeatherCatV1.23B16,2013-11-26 00:38:00,
2013-11-25 19:39:00,21.6,11.0,29.79,WNW,296,0.0,0.0,63,0.00,,,0.00,0,WeatherCatV1.23B16,2013-11-26 00:39:00,
2013-11-25 19:40:00,21.6,10.6,29.78,WNW,296,0.0,0.0,62,0.00,,,0.00,0,WeatherCatV1.23B16,2013-11-26 00:40:00,
2013-11-25 19:42:00,21.6,10.6,29.78,WNW,296,0.0,0.0,62,0.00,,,0.00,0,WeatherCatV1.23B16,2013-11-26 00:42:00,
2013-11-25 19:44:00,21.6,10.6,29.78,WNW,296,0.0,0.0,62,0.00,,,0.00,0,WeatherCatV1.23B16,2013-11-26 00:44:00,
2013-11-25 19:45:00,21.6,10.6,29.78,WNW,296,0.0,0.0,62,0.00,,,0.00,0,WeatherCatV1.23B16,2013-11-26 00:45:00,
2013-11-25 19:46:00,21.6,10.6,29.78,WNW,296,0.0,0.0,62,0.00,,,0.00,0,WeatherCatV1.23B16,2013-11-26 00:46:00,
2013-11-25 19:47:00,21.6,10.6,29.78,WNW,296,0.0,0.0,62,0.00,,,0.00,0,WeatherCatV1.23B16,2013-11-26 00:47:00,
2013-11-25 19:49:00,21.7,10.0,29.78,WNW,296,0.0,0.0,60,0.00,,,0.00,0,WeatherCatV1.23B16,2013-11-26 00:49:00,
2013-11-25 19:50:00,21.7,9.2,29.78,WNW,296,0.0,0.0,58,0.00,,,0.00,0,WeatherCatV1.23B16,2013-11-26 00:50:00,
2013-11-25 19:51:00,21.7,9.2,29.78,WNW,296,0.0,0.0,58,0.00,,,0.00,0,WeatherCatV1.23B16,2013-11-26 00:51:00,
2013-11-25 19:52:00,21.7,10.0,29.78,WNW,296,0.0,0.0,60,0.00,,,0.00,0,WeatherCatV1.23B16,2013-11-26 00:52:00,
2013-11-25 19:54:00,21.7,9.2,29.78,WNW,296,0.0,0.0,58,0.00,,,0.00,0,WeatherCatV1.23B16,2013-11-26 00:54:00,
2013-11-25 19:55:00,21.7,9.2,29.78,WNW,296,0.0,0.0,58,0.00,,,0.00,0,WeatherCatV1.23B16,2013-11-26 00:55:00,
2013-11-25 19:56:00,21.8,10.8,29.78,WNW,296,0.0,0.0,62,0.00,,,0.00,0,WeatherCatV1.23B16,2013-11-26 00:56:00,
2013-11-25 19:58:00,21.8,10.8,29.78,WNW,296,0.0,0.0,62,0.00,,,0.00,0,WeatherCatV1.23B16,2013-11-26 00:58:00,
2013-11-25 20:00:00,21.8,11.2,29.78,WNW,296,0.0,0.0,63,0.00,,,0.00,0,WeatherCatV1.23B16,2013-11-26 01:00:00,
2013-11-25 20:01:00,21.9,11.3,29.78,WNW,296,0.0,0.0,63,0.00,,,0.00,0,WeatherCatV1.23B16,2013-11-26 01:01:00,
2013-11-25 20:02:00,21.9,11.3,29.78,WNW,296,0.0,0.0,63,0.00,,,0.00,0,WeatherCatV1.23B16,2013-11-26 01:02:00,
2013-11-25 20:03:00,21.9,10.9,29.78,WNW,296,0.0,0.0,62,0.00,,,0.00,0,WeatherCatV1.23B16,2013-11-26 01:03:00,
2013-11-25 20:05:00,21.9,9.8,29.78,WNW,296,0.0,0.0,59,0.00,,,0.00,0,WeatherCatV1.23B16,2013-11-26 01:05:00,
2013-11-25 20:06:00,22.0,10.6,29.78,WNW,296,0.0,0.0,61,0.00,,,0.00,0,WeatherCatV1.23B16,2013-11-26 01:06:00,
2013-11-25 20:07:00,22.0,10.6,29.78,WNW,296,0.0,0.0,61,0.00,,,0.00,0,WeatherCatV1.23B16,2013-11-26 01:07:00,
2013-11-25 20:09:00,22.0,10.3,29.78,WNW,296,0.0,0.0,60,0.00,,,0.00,0,WeatherCatV1.23B16,2013-11-26 01:09:00,
2013-11-25 20:10:00,22.0,10.3,29.78,WNW,296,0.0,0.0,60,0.00,,,0.00,0,WeatherCatV1.23B16,2013-11-26 01:10:00,
2013-11-25 20:11:00,22.0,10.3,29.78,WNW,296,0.0,0.0,60,0.00,,,0.00,0,WeatherCatV1.23B16,2013-11-26 01:11:00,
2013-11-25 20:12:00,22.1,10.7,29.78,WNW,296,0.0,1.0,61,0.00,,,0.00,0,WeatherCatV1.23B16,2013-11-26 01:12:00,
2013-11-25 20:14:00,22.1,11.1,29.78,WNW,296,0.0,0.0,62,0.00,,,0.00,0,WeatherCatV1.23B16,2013-11-26 01:14:00,
2013-11-25 20:15:00,22.1,11.5,29.78,WNW,296,0.0,0.0,63,0.00,,,0.00,0,WeatherCatV1.23B16,2013-11-26 01:15:00,
2013-11-25 20:16:00,22.1,11.5,29.78,WNW,296,0.0,0.0,63,0.00,,,0.00,0,WeatherCatV1.23B16,2013-11-26 01:16:00,
2013-11-25 20:17:00,22.1,11.1,29.78,WNW,296,0.0,0.0,62,0.00,,,0.00,0,WeatherCatV1.23B16,2013-11-26 01:17:00,
2013-11-25 20:19:00,22.2,11.6,29.77,WNW,296,0.0,0.0,63,0.00,,,0.00,0,WeatherCatV1.23B16,2013-11-26 01:19:00,
2013-11-25 20:20:00,22.2,11.6,29.78,WNW,296,0.0,0.0,63,0.00,,,0.00,0,WeatherCatV1.23B16,2013-11-26 01:20:00,
2013-11-25 20:21:00,22.2,11.2,29.78,WNW,296,0.0,0.0,62,0.00,,,0.00,0,WeatherCatV1.23B16,2013-11-26 01:21:00,
2013-11-25 20:22:00,22.2,11.2,29.78,WNW,296,0.0,0.0,62,0.00,,,0.00,0,WeatherCatV1.23B16,2013-11-26 01:22:00,
2013-11-25 20:23:00,22.3,11.3,29.78,WNW,296,0.0,0.0,62,0.00,,,0.00,0,WeatherCatV1.23B16,2013-11-26 01:23:00,
2013-11-25 20:24:00,22.3,11.3,29.78,WNW,296,0.0,0.0,62,0.00,,,0.00,0,WeatherCatV1.23B16,2013-11-26 01:24:00,
2013-11-25 20:25:00,22.3,11.6,29.78,WNW,296,0.0,0.0,63,0.00,,,0.00,0,WeatherCatV1.23B16,2013-11-26 01:25:00,
2013-11-25 20:26:00,22.4,11.7,29.78,WNW,296,0.0,0.0,63,0.00,,,0.00,0,WeatherCatV1.23B16,2013-11-26 01:26:00,
2013-11-25 20:27:00,22.4,12.1,29.78,WNW,296,0.0,0.0,64,0.00,,,0.00,0,WeatherCatV1.23B16,2013-11-26 01:27:00,
2013-11-25 20:28:00,22.4,12.1,29.78,WNW,296,0.0,0.0,64,0.00,,,0.00,0,WeatherCatV1.23B16,2013-11-26 01:28:00,
2013-11-25 20:30:00,22.4,11.7,29.78,WNW,296,0.0,0.0,63,0.00,,,0.00,0,WeatherCatV1.23B16,2013-11-26 01:30:00,
2013-11-25 20:31:00,22.4,12.1,29.78,WNW,296,0.0,0.0,64,0.00,,,0.00,0,WeatherCatV1.23B16,2013-11-26 01:31:00,
2013-11-25 20:33:00,22.5,12.2,29.77,WNW,296,0.0,0.0,64,0.00,,,0.00,0,WeatherCatV1.23B16,2013-11-26 01:33:00,
2013-11-25 20:34:00,22.5,12.5,29.77,WNW,296,0.0,0.0,65,0.00,,,0.00,0,WeatherCatV1.23B16,2013-11-26 01:34:00,
2013-11-25 20:36:00,22.5,11.8,29.77,SSE,155,0.0,1.0,63,0.00,,,0.00,0,WeatherCatV1.23B16,2013-11-26 01:36:00,
2013-11-25 20:38:00,22.5,11.8,29.77,SSE,155,0.0,0.0,63,0.00,,,0.00,0,WeatherCatV1.23B16,2013-11-26 01:38:00,
2013-11-25 20:39:00,22.5,11.8,29.77,SSE,155,0.0,0.0,63,0.00,,,0.00,0,WeatherCatV1.23B16,2013-11-26 01:39:00,
2013-11-25 20:41:00,22.6,10.1,29.77,SSE,167,0.0,1.0,58,0.00,,,0.00,0,WeatherCatV1.23B16,2013-11-26 01:41:00,
2013-11-25 20:43:00,22.6,10.8,29.77,SSE,167,0.0,0.0,60,0.00,,,0.00,0,WeatherCatV1.23B16,2013-11-26 01:43:00,
2013-11-25 20:44:00,22.7,10.6,29.77,SSE,167,0.0,0.0,59,0.00,,,0.00,0,WeatherCatV1.23B16,2013-11-26 01:44:00,
2013-11-25 20:46:00,22.7,10.2,29.76,SSE,167,0.0,1.0,58,0.00,,,0.00,0,WeatherCatV1.23B16,2013-11-26 01:46:00,
2013-11-25 20:49:00,22.8,10.6,29.76,SSE,167,0.0,1.0,59,0.00,,,0.00,0,WeatherCatV1.23B16,2013-11-26 01:49:00,
2013-11-25 20:50:00,22.8,10.3,29.76,SSE,167,0.0,1.0,58,0.00,,,0.00,0,WeatherCatV1.23B16,2013-11-26 01:50:00,
2013-11-25 20:52:00,22.9,9.6,29.76,SSE,168,0.0,1.0,56,0.00,,,0.00,0,WeatherCatV1.23B16,2013-11-26 01:52:00,
2013-11-25 20:54:00,23.0,10.1,29.76,SSE,168,0.0,0.0,57,0.00,,,0.00,0,WeatherCatV1.23B16,2013-11-26 01:54:00,
2013-11-25 20:55:00,23.0,9.7,29.76,SSE,168,0.0,1.0,56,0.00,,,0.00,0,WeatherCatV1.23B16,2013-11-26 01:55:00,
2013-11-25 20:57:00,23.1,9.0,29.76,SSE,168,0.0,0.0,54,0.00,,,0.00,0,WeatherCatV1.23B16,2013-11-26 01:57:00,
2013-11-25 20:59:00,23.2,9.5,29.76,SSE,168,0.0,1.0,55,0.00,,,0.00,0,WeatherCatV1.23B16,2013-11-26 01:59:00,
2013-11-25 21:00:00,23.2,9.5,29.76,SSE,168,0.0,0.0,55,0.00,,,0.00,0,WeatherCatV1.23B16,2013-11-26 02:00:00,
2013-11-25 21:02:00,23.2,9.5,29.76,SSE,168,0.0,0.0,55,0.00,,,0.00,0,WeatherCatV1.23B16,2013-11-26 02:02:00,
2013-11-25 21:04:00,23.3,9.1,29.76,SSE,168,0.0,0.0,54,0.00,,,0.00,0,WeatherCatV1.23B16,2013-11-26 02:04:00,
2013-11-25 21:05:00,23.3,9.1,29.76,SSE,168,0.0,1.0,54,0.00,,,0.00,0,WeatherCatV1.23B16,2013-11-26 02:05:00,
2013-11-25 21:06:00,23.4,8.8,29.76,SSE,168,0.0,1.0,53,0.00,,,0.00,0,WeatherCatV1.23B16,2013-11-26 02:06:00,
2013-11-25 21:07:00,23.4,9.2,29.77,SSE,168,0.0,0.0,54,0.00,,,0.00,0,WeatherCatV1.23B16,2013-11-26 02:07:00,
2013-11-25 21:10:00,23.5,8.5,29.77,South,171,0.0,1.0,52,0.00,,,0.00,0,WeatherCatV1.23B16,2013-11-26 02:10:00,
2013-11-25 21:11:00,23.6,9.0,29.77,South,171,0.0,0.0,53,0.00,,,0.00,0,WeatherCatV1.23B16,2013-11-26 02:11:00,
2013-11-25 21:12:00,23.6,9.4,29.77,South,171,0.0,0.0,54,0.00,,,0.00,0,WeatherCatV1.23B16,2013-11-26 02:12:00,
2013-11-25 21:15:00,23.7,9.5,29.77,South,171,0.0,0.0,54,0.00,,,0.00,0,WeatherCatV1.23B16,2013-11-26 02:15:00,
2013-11-25 21:17:00,23.8,8.8,29.77,SSE,167,0.0,1.0,52,0.00,,,0.00,0,WeatherCatV1.23B16,2013-11-26 02:17:00,
2013-11-25 21:18:00,23.8,8.8,29.77,SSE,167,0.0,0.0,52,0.00,,,0.00,0,WeatherCatV1.23B16,2013-11-26 02:18:00,
2013-11-25 21:20:00,23.9,9.7,29.76,SSE,167,0.0,0.0,54,0.00,,,0.00,0,WeatherCatV1.23B16,2013-11-26 02:20:00,
2013-11-25 21:22:00,24.0,9.8,29.76,SSE,167,0.0,0.0,54,0.00,,,0.00,0,WeatherCatV1.23B16,2013-11-26 02:22:00,
2013-11-25 21:23:00,24.0,9.8,29.76,SSE,167,0.0,0.0,54,0.00,,,0.00,0,WeatherCatV1.23B16,2013-11-26 02:23:00,
2013-11-25 21:25:00,24.1,10.3,29.76,SSE,167,0.0,0.0,55,0.00,,,0.00,0,WeatherCatV1.23B16,2013-11-26 02:25:00,
2013-11-25 21:26:00,24.1,9.9,29.76,SSE,167,0.0,0.0,54,0.00,,,0.00,0,WeatherCatV1.23B16,2013-11-26 02:26:00,
2013-11-25 21:27:00,24.1,9.9,29.76,SSE,167,0.0,0.0,54,0.00,,,0.00,0,WeatherCatV1.23B16,2013-11-26 02:27:00,
2013-11-25 21:28:00,24.2,10.0,29.76,SSE,167,0.0,0.0,54,0.00,,,0.00,0,WeatherCatV1.23B16,2013-11-26 02:28:00,
2013-11-25 21:30:00,24.2,9.6,29.77,SSE,167,0.0,0.0,53,0.00,,,0.00,0,WeatherCatV1.23B16,2013-11-26 02:30:00,
2013-11-25 21:31:00,24.2,10.0,29.77,SSE,167,0.0,0.0,54,0.00,,,0.00,0,WeatherCatV1.23B16,2013-11-26 02:31:00,
2013-11-25 21:33:00,24.2,10.0,29.76,SSE,167,0.0,0.0,54,0.00,,,0.00,0,WeatherCatV1.23B16,2013-11-26 02:33:00,
2013-11-25 21:34:00,24.3,10.1,29.76,SSE,167,0.0,0.0,54,0.00,,,0.00,0,WeatherCatV1.23B16,2013-11-26 02:34:00,
2013-11-25 21:35:00,24.3,9.7,29.76,SSE,167,0.0,0.0,53,0.00,,,0.00,0,WeatherCatV1.23B16,2013-11-26 02:35:00,
2013-11-25 21:37:00,24.3,10.1,29.76,SSE,167,0.0,0.0,54,0.00,,,0.00,0,WeatherCatV1.23B16,2013-11-26 02:37:00,
2013-11-25 21:38:00,24.4,10.2,29.76,SSE,167,0.0,0.0,54,0.00,,,0.00,0,WeatherCatV1.23B16,2013-11-26 02:38:00,
2013-11-25 21:39:00,24.4,9.8,29.76,SSE,167,0.0,1.0,53,0.00,,,0.00,0,WeatherCatV1.23B16,2013-11-26 02:39:00,
2013-11-25 21:41:00,24.4,9.3,29.76,SSE,167,0.0,1.0,52,0.00,,,0.00,0,WeatherCatV1.23B16,2013-11-26 02:41:00,
2013-11-25 21:42:00,24.4,9.3,29.76,South,169,0.0,1.0,52,0.00,,,0.00,0,WeatherCatV1.23B16,2013-11-26 02:42:00,
2013-11-25 21:43:00,24.4,8.9,29.76,South,169,0.0,1.0,51,0.00,,,0.00,0,WeatherCatV1.23B16,2013-11-26 02:43:00,
2013-11-25 21:44:00,24.5,9.4,29.76,South,169,0.0,0.0,52,0.00,,,0.00,0,WeatherCatV1.23B16,2013-11-26 02:44:00,
2013-11-25 21:45:00,24.5,9.4,29.76,South,169,0.0,0.0,52,0.00,,,0.00,0,WeatherCatV1.23B16,2013-11-26 02:45:00,
2013-11-25 21:46:00,24.5,9.9,29.76,South,169,0.0,0.0,53,0.00,,,0.00,0,WeatherCatV1.23B16,2013-11-26 02:46:00,
2013-11-25 21:47:00,24.5,9.4,29.76,South,169,0.0,1.0,52,0.00,,,0.00,0,WeatherCatV1.23B16,2013-11-26 02:47:00,
2013-11-25 21:48:00,24.5,8.6,29.76,South,169,0.0,1.0,50,0.00,,,0.00,0,WeatherCatV1.23B16,2013-11-26 02:48:00,
2013-11-25 21:50:00,24.6,9.1,29.76,South,169,0.0,0.0,51,0.00,,,0.00,0,WeatherCatV1.23B16,2013-11-26 02:50:00,
2013-11-25 21:51:00,24.6,9.1,29.76,South,169,0.0,0.0,51,0.00,,,0.00,0,WeatherCatV1.23B16,2013-11-26 02:51:00,
2013-11-25 21:52:00,24.7,9.6,29.76,South,169,0.0,0.0,52,0.00,,,0.00,0,WeatherCatV1.23B16,2013-11-26 02:52:00,
2013-11-25 21:53:00,24.7,10.0,29.76,South,169,0.0,0.0,53,0.00,,,0.00,0,WeatherCatV1.23B16,2013-11-26 02:53:00,
2013-11-25 21:54:00,24.6,9.9,29.76,South,169,0.0,0.0,53,0.00,,,0.00,0,WeatherCatV1.23B16,2013-11-26 02:54:00,
2013-11-25 21:55:00,24.7,9.6,29.76,South,169,0.0,0.0,52,0.00,,,0.00,0,WeatherCatV1.23B16,2013-11-26 02:55:00,
2013-11-25 21:56:00,24.7,9.2,29.76,South,169,0.0,1.0,51,0.00,,,0.00,0,WeatherCatV1.23B16,2013-11-26 02:56:00,
2013-11-25 21:57:00,24.7,9.2,29.76,South,169,0.0,0.0,51,0.00,,,0.00,0,WeatherCatV1.23B16,2013-11-26 02:57:00,
2013-11-25 21:58:00,24.7,9.6,29.76,South,169,0.0,0.0,52,0.00,,,0.00,0,WeatherCatV1.23B16,2013-11-26 02:58:00,
2013-11-25 21:59:00,24.7,9.6,29.76,South,169,0.0,0.0,52,0.00,,,0.00,0,WeatherCatV1.23B16,2013-11-26 02:59:00,
2013-11-25 22:00:00,24.7,10.0,29.76,South,169,0.0,0.0,53,0.00,,,0.00,0,WeatherCatV1.23B16,2013-11-26 03:00:00,
2013-11-25 22:01:00,24.8,10.5,29.76,South,169,0.0,0.0,54,0.00,,,0.00,0,WeatherCatV1.23B16,2013-11-26 03:01:00,
2013-11-25 22:03:00,24.8,10.9,29.75,South,169,0.0,0.0,55,0.00,,,0.00,0,WeatherCatV1.23B16,2013-11-26 03:03:00,
2013-11-25 22:04:00,24.8,10.9,29.75,South,169,0.0,0.0,55,0.00,,,0.00,0,WeatherCatV1.23B16,2013-11-26 03:04:00,
2013-11-25 22:05:00,24.8,10.9,29.75,South,169,0.0,0.0,55,0.00,,,0.00,0,WeatherCatV1.23B16,2013-11-26 03:05:00,
2013-11-25 22:06:00,24.8,10.9,29.75,South,169,0.0,0.0,55,0.00,,,0.00,0,WeatherCatV1.23B16,2013-11-26 03:06:00,
2013-11-25 22:08:00,24.9,10.6,29.75,South,169,0.0,0.0,54,0.00,,,0.00,0,WeatherCatV1.23B16,2013-11-26 03:08:00,
2013-11-25 22:09:00,24.9,11.1,29.75,South,169,0.0,0.0,55,0.00,,,0.00,0,WeatherCatV1.23B16,2013-11-26 03:09:00,
2013-11-25 22:10:00,24.9,11.1,29.75,South,169,0.0,0.0,55,0.00,,,0.00,0,WeatherCatV1.23B16,2013-11-26 03:10:00,
2013-11-25 22:11:00,24.9,11.1,29.75,South,169,0.0,0.0,55,0.00,,,0.00,0,WeatherCatV1.23B16,2013-11-26 03:11:00,
2013-11-25 22:12:00,24.9,10.6,29.75,South,169,0.0,0.0,54,0.00,,,0.00,0,WeatherCatV1.23B16,2013-11-26 03:12:00,
2013-11-25 22:13:00,24.9,11.1,29.75,South,169,0.0,0.0,55,0.00,,,0.00,0,WeatherCatV1.23B16,2013-11-26 03:13:00,
2013-11-25 22:14:00,24.9,11.1,29.75,South,169,0.0,0.0,55,0.00,,,0.00,0,WeatherCatV1.23B16,2013-11-26 03:14:00,
2013-11-25 22:15:00,24.9,10.6,29.75,South,169,0.0,0.0,54,0.00,,,0.00,0,WeatherCatV1.23B16,2013-11-26 03:15:00,
2013-11-25 22:16:00,24.9,10.6,29.75,South,169,0.0,0.0,54,0.00,,,0.00,0,WeatherCatV1.23B16,2013-11-26 03:16:00,
2013-11-25 22:17:00,24.9,11.1,29.75,South,169,0.0,0.0,55,0.00,,,0.00,0,WeatherCatV1.23B16,2013-11-26 03:17:00,
2013-11-25 22:19:00,24.9,11.1,29.75,South,169,0.0,0.0,55,0.00,,,0.00,0,WeatherCatV1.23B16,2013-11-26 03:19:00,
2013-11-25 22:20:00,25.0,11.1,29.75,South,169,0.0,0.0,55,0.00,,,0.00,0,WeatherCatV1.23B16,2013-11-26 03:20:00,
2013-11-25 22:21:00,25.0,11.1,29.75,South,169,0.0,0.0,55,0.00,,,0.00,0,WeatherCatV1.23B16,2013-11-26 03:21:00,
2013-11-25 22:22:00,25.0,11.1,29.75,South,169,0.0,0.0,55,0.00,,,0.00,0,WeatherCatV1.23B16,2013-11-26 03:22:00,
2013-11-25 22:24:00,25.0,11.1,29.75,South,169,0.0,0.0,55,0.00,,,0.00,0,WeatherCatV1.23B16,2013-11-26 03:24:00,
2013-11-25 22:25:00,25.1,11.6,29.74,South,169,0.0,0.0,56,0.00,,,0.00,0,WeatherCatV1.23B16,2013-11-26 03:25:00,
2013-11-25 22:26:00,25.1,11.6,29.74,South,169,0.0,0.0,56,0.00,,,0.00,0,WeatherCatV1.23B16,2013-11-26 03:26:00,
2013-11-25 22:27:00,25.1,11.6,29.75,South,169,0.0,0.0,56,0.00,,,0.00,0,WeatherCatV1.23B16,2013-11-26 03:27:00,
2013-11-25 22:28:00,25.1,12.0,29.75,South,169,0.0,0.0,57,0.00,,,0.00,0,WeatherCatV1.23B16,2013-11-26 03:28:00,
2013-11-25 22:29:00,25.1,12.0,29.75,South,169,0.0,0.0,57,0.00,,,0.00,0,WeatherCatV1.23B16,2013-11-26 03:29:00,
2013-11-25 22:30:00,25.1,12.4,29.75,South,169,0.0,0.0,58,0.00,,,0.00,0,WeatherCatV1.23B16,2013-11-26 03:30:00,
2013-11-25 22:32:00,25.1,12.8,29.76,South,169,0.0,0.0,59,0.00,,,0.00,0,WeatherCatV1.23B16,2013-11-26 03:32:00,
2013-11-25 22:33:00,25.1,12.0,29.76,South,169,0.0,0.0,57,0.00,,,0.00,0,WeatherCatV1.23B16,2013-11-26 03:33:00,
2013-11-25 22:34:00,25.1,11.6,29.76,South,169,0.0,0.0,56,0.00,,,0.00,0,WeatherCatV1.23B16,2013-11-26 03:34:00,
2013-11-25 22:35:00,25.1,12.0,29.76,South,169,0.0,0.0,57,0.00,,,0.00,0,WeatherCatV1.23B16,2013-11-26 03:35:00,
2013-11-25 22:37:00,25.1,11.6,29.76,South,169,0.0,0.0,56,0.00,,,0.00,0,WeatherCatV1.23B16,2013-11-26 03:37:00,
2013-11-25 22:38:00,25.1,12.0,29.76,South,169,0.0,0.0,57,0.00,,,0.00,0,WeatherCatV1.23B16,2013-11-26 03:38:00,
2013-11-25 22:39:00,25.1,11.6,29.76,South,169,0.0,0.0,56,0.00,,,0.00,0,WeatherCatV1.23B16,2013-11-26 03:39:00,
2013-11-25 22:40:00,25.1,11.6,29.76,South,169,0.0,0.0,56,0.00,,,0.00,0,WeatherCatV1.23B16,2013-11-26 03:40:00,
2013-11-25 22:42:00,25.1,10.8,29.76,South,169,0.0,0.0,54,0.00,,,0.00,0,WeatherCatV1.23B16,2013-11-26 03:42:00,
2013-11-25 22:43:00,25.1,10.8,29.76,South,169,0.0,0.0,54,0.00,,,0.00,0,WeatherCatV1.23B16,2013-11-26 03:43:00,
2013-11-25 22:44:00,25.1,10.8,29.76,South,169,0.0,0.0,54,0.00,,,0.00,0,WeatherCatV1.23B16,2013-11-26 03:44:00,
2013-11-25 22:45:00,25.1,10.8,29.76,South,169,0.0,0.0,54,0.00,,,0.00,0,WeatherCatV1.23B16,2013-11-26 03:45:00,
2013-11-25 22:46:00,25.1,11.6,29.76,South,169,0.0,0.0,56,0.00,,,0.00,0,WeatherCatV1.23B16,2013-11-26 03:46:00,
2013-11-25 22:47:00,25.1,11.6,29.76,South,169,0.0,0.0,56,0.00,,,0.00,0,WeatherCatV1.23B16,2013-11-26 03:47:00,
2013-11-25 22:48:00,25.1,11.6,29.76,South,169,0.0,0.0,56,0.00,,,0.00,0,WeatherCatV1.23B16,2013-11-26 03:48:00,
2013-11-25 22:49:00,25.1,11.6,29.76,South,169,0.0,0.0,56,0.00,,,0.00,0,WeatherCatV1.23B16,2013-11-26 03:49:00,
2013-11-25 22:50:00,25.1,11.2,29.76,South,169,0.0,0.0,55,0.00,,,0.00,0,WeatherCatV1.23B16,2013-11-26 03:50:00,
2013-11-25 22:51:00,25.1,11.2,29.76,South,169,0.0,0.0,55,0.00,,,0.00,0,WeatherCatV1.23B16,2013-11-26 03:51:00,
2013-11-25 22:52:00,25.1,11.6,29.76,South,169,0.0,0.0,56,0.00,,,0.00,0,WeatherCatV1.23B16,2013-11-26 03:52:00,
2013-11-25 22:53:00,25.1,11.2,29.76,South,169,0.0,0.0,55,0.00,,,0.00,0,WeatherCatV1.23B16,2013-11-26 03:53:00,
2013-11-25 22:54:00,25.1,11.2,29.76,South,169,0.0,0.0,55,0.00,,,0.00,0,WeatherCatV1.23B16,2013-11-26 03:54:00,
2013-11-25 22:55:00,25.2,11.3,29.76,South,169,0.0,0.0,55,0.00,,,0.00,0,WeatherCatV1.23B16,2013-11-26 03:55:00,
2013-11-25 22:57:00,25.1,11.6,29.76,South,169,0.0,0.0,56,0.00,,,0.00,0,WeatherCatV1.23B16,2013-11-26 03:57:00,
2013-11-25 22:58:00,25.2,11.7,29.76,South,169,0.0,0.0,56,0.00,,,0.00,0,WeatherCatV1.23B16,2013-11-26 03:58:00,
2013-11-25 22:59:00,25.1,11.6,29.76,South,169,0.0,0.0,56,0.00,,,0.00,0,WeatherCatV1.23B16,2013-11-26 03:59:00,
2013-11-25 23:00:00,25.1,12.4,29.76,South,169,0.0,0.0,58,0.00,,,0.00,0,WeatherCatV1.23B16,2013-11-26 04:00:00,
2013-11-25 23:02:00,25.2,12.9,29.76,South,169,0.0,0.0,59,0.00,,,0.00,0,WeatherCatV1.23B16,2013-11-26 04:02:00,
2013-11-25 23:03:00,25.2,13.3,29.76,South,169,0.0,0.0,60,0.00,,,0.00,0,WeatherCatV1.23B16,2013-11-26 04:03:00,
2013-11-25 23:04:00,25.2,12.9,29.76,South,169,0.0,0.0,59,0.00,,,0.00,0,WeatherCatV1.23B16,2013-11-26 04:04:00,
2013-11-25 23:05:00,25.2,12.9,29.76,South,169,0.0,0.0,59,0.00,,,0.00,0,WeatherCatV1.23B16,2013-11-26 04:05:00,
2013-11-25 23:06:00,25.2,13.3,29.76,South,169,0.0,0.0,60,0.00,,,0.00,0,WeatherCatV1.23B16,2013-11-26 04:06:00,
2013-11-25 23:07:00,25.2,13.3,29.75,South,169,0.0,0.0,60,0.00,,,0.00,0,WeatherCatV1.23B16,2013-11-26 04:07:00,
2013-11-25 23:08:00,25.2,12.9,29.74,South,169,0.0,0.0,59,0.00,,,0.00,0,WeatherCatV1.23B16,2013-11-26 04:08:00,
2013-11-25 23:09:00,25.2,12.9,29.74,South,169,0.0,0.0,59,0.00,,,0.00,0,WeatherCatV1.23B16,2013-11-26 04:09:00,
2013-11-25 23:10:00,25.2,13.3,29.74,South,169,0.0,0.0,60,0.00,,,0.00,0,WeatherCatV1.23B16,2013-11-26 04:10:00,
2013-11-25 23:11:00,25.2,12.9,29.74,South,169,0.0,0.0,59,0.00,,,0.00,0,WeatherCatV1.23B16,2013-11-26 04:11:00,
2013-11-25 23:12:00,25.2,12.5,29.74,South,169,0.0,1.0,58,0.00,,,0.00,0,WeatherCatV1.23B16,2013-11-26 04:12:00,
2013-11-25 23:13:00,25.2,12.5,29.75,South,169,0.0,1.0,58,0.00,,,0.00,0,WeatherCatV1.23B16,2013-11-26 04:13:00,
2013-11-25 23:15:00,25.2,12.1,29.74,South,169,0.0,1.0,57,0.00,,,0.00,0,WeatherCatV1.23B16,2013-11-26 04:15:00,
2013-11-25 23:16:00,25.2,11.3,29.74,South,169,0.0,0.0,55,0.00,,,0.00,0,WeatherCatV1.23B16,2013-11-26 04:16:00,
2013-11-25 23:19:00,25.2,11.7,29.74,South,169,0.0,0.0,56,0.00,,,0.00,0,WeatherCatV1.23B16,2013-11-26 04:19:00,
2013-11-25 23:20:00,25.2,11.7,29.74,South,169,0.0,0.0,56,0.00,,,0.00,0,WeatherCatV1.23B16,2013-11-26 04:20:00,
2013-11-25 23:21:00,25.2,12.1,29.74,South,169,0.0,0.0,57,0.00,,,0.00,0,WeatherCatV1.23B16,2013-11-26 04:21:00,
2013-11-25 23:24:00,25.2,12.5,29.74,South,169,0.0,0.0,58,0.00,,,0.00,0,WeatherCatV1.23B16,2013-11-26 04:24:00,
2013-11-25 23:25:00,25.2,12.9,29.74,South,169,0.0,0.0,59,0.00,,,0.00,0,WeatherCatV1.23B16,2013-11-26 04:25:00,
2013-11-25 23:26:00,25.3,13.0,29.74,South,169,0.0,0.0,59,0.00,,,0.00,0,WeatherCatV1.23B16,2013-11-26 04:26:00,
2013-11-25 23:27:00,25.2,12.9,29.74,South,169,0.0,0.0,59,0.00,,,0.00,0,WeatherCatV1.23B16,2013-11-26 04:27:00,
2013-11-25 23:29:00,25.2,12.9,29.74,South,169,0.0,0.0,59,0.00,,,0.00,0,WeatherCatV1.23B16,2013-11-26 04:29:00,
2013-11-25 23:30:00,25.3,13.0,29.74,South,169,0.0,0.0,59,0.00,,,0.00,0,WeatherCatV1.23B16,2013-11-26 04:30:00,
2013-11-25 23:31:00,25.3,13.0,29.75,South,169,0.0,0.0,59,0.00,,,0.00,0,WeatherCatV1.23B16,2013-11-26 04:31:00,
2013-11-25 23:32:00,25.3,13.0,29.75,South,169,0.0,0.0,59,0.00,,,0.00,0,WeatherCatV1.23B16,2013-11-26 04:32:00,
2013-11-25 23:34:00,25.3,13.0,29.75,South,169,0.0,0.0,59,0.00,,,0.00,0,WeatherCatV1.23B16,2013-11-26 04:34:00,
2013-11-25 23:35:00,25.3,13.0,29.75,South,169,0.0,0.0,59,0.00,,,0.00,0,WeatherCatV1.23B16,2013-11-26 04:35:00,
2013-11-25 23:36:00,25.3,13.4,29.75,South,169,0.0,0.0,60,0.00,,,0.00,0,WeatherCatV1.23B16,2013-11-26 04:36:00,
2013-11-25 23:37:00,25.3,13.4,29.75,South,169,0.0,0.0,60,0.00,,,0.00,0,WeatherCatV1.23B16,2013-11-26 04:37:00,
2013-11-25 23:38:00,25.3,13.4,29.75,South,169,0.0,0.0,60,0.00,,,0.00,0,WeatherCatV1.23B16,2013-11-26 04:38:00,
2013-11-25 23:40:00,25.3,13.8,29.74,South,169,0.0,0.0,61,0.00,,,0.00,0,WeatherCatV1.23B16,2013-11-26 04:40:00,
2013-11-25 23:41:00,25.3,14.5,29.74,South,169,0.0,0.0,63,0.00,,,0.00,0,WeatherCatV1.23B16,2013-11-26 04:41:00,
2013-11-25 23:42:00,25.3,14.5,29.74,South,169,0.0,0.0,63,0.00,,,0.00,0,WeatherCatV1.23B16,2013-11-26 04:42:00,
2013-11-25 23:43:00,25.3,13.4,29.74,South,169,0.0,0.0,60,0.00,,,0.00,0,WeatherCatV1.23B16,2013-11-26 04:43:00,
2013-11-25 23:45:00,25.3,13.4,29.74,South,169,0.0,0.0,60,0.00,,,0.00,0,WeatherCatV1.23B16,2013-11-26 04:45:00,
2013-11-25 23:46:00,25.3,12.6,29.74,South,169,0.0,0.0,58,0.00,,,0.00,0,WeatherCatV1.23B16,2013-11-26 04:46:00,
2013-11-25 23:47:00,25.3,12.6,29.74,South,169,0.0,0.0,58,0.00,,,0.00,0,WeatherCatV1.23B16,2013-11-26 04:47:00,
2013-11-25 23:48:00,25.3,12.6,29.74,South,169,0.0,0.0,58,0.00,,,0.00,0,WeatherCatV1.23B16,2013-11-26 04:48:00,
2013-11-25 23:50:00,25.3,13.0,29.74,South,169,0.0,0.0,59,0.00,,,0.00,0,WeatherCatV1.23B16,2013-11-26 04:50:00,
2013-11-25 23:52:00,25.3,12.6,29.74,South,169,0.0,0.0,58,0.00,,,0.00,0,WeatherCatV1.23B16,2013-11-26 04:52:00,
2013-11-25 23:53:00,25.3,12.6,29.74,South,169,0.0,0.0,58,0.00,,,0.00,0,WeatherCatV1.23B16,2013-11-26 04:53:00,
2013-11-25 23:55:00,25.3,12.6,29.74,South,169,0.0,0.0,58,0.00,,,0.00,0,WeatherCatV1.23B16,2013-11-26 04:55:00,
2013-11-25 23:57:00,25.3,12.2,29.74,South,169,0.0,0.0,57,0.00,,,0.00,0,WeatherCatV1.23B16,2013-11-26 04:57:00,
2013-11-25 23:58:00,25.3,12.2,29.74,South,169,0.0,0.0,57,0.00,,,0.00,0,WeatherCatV1.23B16,2013-11-26 04:58:00,
2013-11-25 23:59:00,25.3,12.2,29.74,South,169,0.0,0.0,57,0.00,,,0.00,0,WeatherCatV1.23B16,2013-11-26 04:59:00,